Wetterdaten: Donnerstag, 01.07.2021
Datum Zeit Temp. Aussen Temp. o. S. Temp +5cm Feuchte Auss Luftdruck Regen Sonnenschein Regendauer Solar Windben Empfang
01.07.2021 00:00 14,1 C 13,3 C 15,0 C 98 % 1014,5 hPa 0,0 l/m 0 min 0 min 0 W/m 6,4 km/h (2 Bft) 97,87 %
01.07.2021 00:02 14,1 C 13,3 C 15,0 C 98 % 1014,5 hPa 0,0 l/m 0 min 0 min 0 W/m 3,2 km/h (1 Bft) 97,56 %
01.07.2021 00:04 14,1 C 13,3 C 15,0 C 98 % 1014,5 hPa 0,0 l/m 0 min 0 min 0 W/m 6,4 km/h (2 Bft) 97,87 %
01.07.2021 00:07 14,1 C 13,9 C 15,0 C 98 % 1014,5 hPa 0,0 l/m 0 min 0 min 0 W/m 6,4 km/h (2 Bft) 98,68 %
01.07.2021 00:08 14,1 C 13,9 C 15,0 C 98 % 1014,5 hPa 0,0 l/m 0 min 0 min 0 W/m 9,7 km/h (2 Bft) 94,44 %
01.07.2021 00:10 14,1 C 13,3 C 15,0 C 98 % 1014,5 hPa 0,0 l/m 0 min 0 min 0 W/m 12,9 km/h (3 Bft) 97,87 %
01.07.2021 00:12 14,0 C 13,3 C 15,0 C 98 % 1014,5 hPa 0,0 l/m 0 min 0 min 0 W/m 3,2 km/h (1 Bft) 97,83 %
01.07.2021 00:14 14,0 C 13,3 C 15,0 C 98 % 1014,5 hPa 0,0 l/m 0 min 0 min 0 W/m 6,4 km/h (2 Bft) 97,87 %
01.07.2021 00:16 14,0 C 13,3 C 15,0 C 98 % 1014,5 hPa 0,0 l/m 0 min 0 min 0 W/m 6,4 km/h (2 Bft) 97,87 %
01.07.2021 00:18 14,0 C 13,3 C 15,0 C 98 % 1014,4 hPa 0,0 l/m 0 min 0 min 0 W/m 6,4 km/h (2 Bft) 97,73 %
01.07.2021 00:20 14,0 C 13,3 C 15,0 C 98 % 1014,5 hPa 0,0 l/m 0 min 0 min 0 W/m 3,2 km/h (1 Bft) 98,00 %
01.07.2021 00:22 14,1 C 13,3 C 15,0 C 98 % 1014,5 hPa 0,0 l/m 0 min 0 min 0 W/m 6,4 km/h (2 Bft) 97,87 %
01.07.2021 00:24 14,1 C 13,3 C 15,0 C 98 % 1014,5 hPa 0,0 l/m 0 min 0 min 0 W/m 3,2 km/h (1 Bft) 95,65 %
01.07.2021 00:26 14,1 C 13,3 C 15,0 C 98 % 1014,5 hPa 0,0 l/m 0 min 0 min 0 W/m 6,4 km/h (2 Bft) 97,87 %
01.07.2021 00:28 14,0 C 13,3 C 15,0 C 98 % 1014,5 hPa 0,0 l/m 0 min 0 min 0 W/m 6,4 km/h (2 Bft) 97,87 %
01.07.2021 00:30 14,0 C 13,3 C 15,0 C 98 % 1014,6 hPa 0,0 l/m 0 min 0 min 0 W/m 9,7 km/h (2 Bft) 97,73 %
01.07.2021 00:32 14,0 C 13,3 C 15,0 C 98 % 1014,6 hPa 0,0 l/m 0 min 0 min 0 W/m 6,4 km/h (2 Bft) 97,87 %
01.07.2021 00:34 14,0 C 13,3 C 15,0 C 98 % 1014,6 hPa 0,0 l/m 0 min 0 min 0 W/m 6,4 km/h (2 Bft) 97,92 %
01.07.2021 00:36 14,0 C 13,3 C 15,0 C 98 % 1014,6 hPa 0,0 l/m 0 min 0 min 0 W/m 6,4 km/h (2 Bft) 100,00 %
01.07.2021 00:38 14,0 C 13,3 C 15,0 C 98 % 1014,6 hPa 0,0 l/m 0 min 0 min 0 W/m 6,4 km/h (2 Bft) 100,00 %
01.07.2021 00:40 13,9 C 13,3 C 15,0 C 98 % 1014,6 hPa 0,0 l/m 0 min 0 min 0 W/m 3,2 km/h (1 Bft) 100,00 %
01.07.2021 00:42 14,0 C 13,3 C 15,0 C 98 % 1014,6 hPa 0,0 l/m 0 min 0 min 0 W/m 6,4 km/h (2 Bft) 97,87 %
01.07.2021 00:44 13,9 C 13,3 C 15,0 C 98 % 1014,6 hPa 0,0 l/m 0 min 0 min 0 W/m 3,2 km/h (1 Bft) 100,00 %
01.07.2021 00:46 14,0 C 13,3 C 15,0 C 98 % 1014,5 hPa 0,0 l/m 0 min 0 min 0 W/m 3,2 km/h (1 Bft) 97,87 %
01.07.2021 00:48 13,9 C 13,3 C 15,0 C 98 % 1014,6 hPa 0,0 l/m 0 min 0 min 0 W/m 3,2 km/h (1 Bft) 100,00 %
01.07.2021 00:50 13,9 C 13,3 C 15,0 C 98 % 1014,6 hPa 0,0 l/m 0 min 0 min 0 W/m 6,4 km/h (2 Bft) 97,87 %
01.07.2021 00:52 13,9 C 13,3 C 15,0 C 98 % 1014,6 hPa 0,0 l/m 0 min 0 min 0 W/m 9,7 km/h (2 Bft) 97,96 %
01.07.2021 00:54 13,9 C 13,3 C 15,0 C 98 % 1014,6 hPa 0,0 l/m 0 min 0 min 0 W/m 6,4 km/h (2 Bft) 100,00 %
01.07.2021 00:56 13,9 C 13,3 C 15,0 C 98 % 1014,6 hPa 0,0 l/m 0 min 0 min 0 W/m 9,7 km/h (2 Bft) 100,00 %
01.07.2021 00:58 13,9 C 13,3 C 15,0 C 98 % 1014,6 hPa 0,0 l/m 0 min 0 min 0 W/m 6,4 km/h (2 Bft) 100,00 %
01.07.2021 01:00 13,9 C 13,3 C 15,0 C 98 % 1014,6 hPa 0,0 l/m 0 min 0 min 0 W/m 6,4 km/h (2 Bft) 100,00 %
01.07.2021 01:02 14,0 C 13,3 C 15,0 C 98 % 1014,6 hPa 0,0 l/m 0 min 0 min 0 W/m 3,2 km/h (1 Bft) 100,00 %
01.07.2021 01:04 14,0 C 13,3 C 15,0 C 98 % 1014,6 hPa 0,0 l/m 0 min 0 min 0 W/m 3,2 km/h (1 Bft) 100,00 %
01.07.2021 01:06 14,0 C 13,3 C 15,0 C 98 % 1014,6 hPa 0,0 l/m 0 min 0 min 0 W/m 6,4 km/h (2 Bft) 100,00 %
01.07.2021 01:08 14,0 C 13,3 C 15,0 C 98 % 1014,6 hPa 0,0 l/m 0 min 0 min 0 W/m 6,4 km/h (2 Bft) 100,00 %
01.07.2021 01:10 14,0 C 13,3 C 15,0 C 98 % 1014,6 hPa 0,0 l/m 0 min 0 min 0 W/m 6,4 km/h (2 Bft) 100,00 %
01.07.2021 01:12 14,0 C 13,3 C 15,0 C 98 % 1014,6 hPa 0,0 l/m 0 min 0 min 0 W/m 6,4 km/h (2 Bft) 98,00 %
01.07.2021 01:14 14,0 C 13,3 C 15,0 C 98 % 1014,6 hPa 0,0 l/m 0 min 0 min 0 W/m 6,4 km/h (2 Bft) 100,00 %
01.07.2021 01:16 13,9 C 13,3 C 15,0 C 97 % 1014,5 hPa 0,0 l/m 0 min 0 min 0 W/m 6,4 km/h (2 Bft) 100,00 %
01.07.2021 01:18 13,9 C 13,3 C 15,0 C 97 % 1014,5 hPa 0,0 l/m 0 min 0 min 0 W/m 6,4 km/h (2 Bft) 100,00 %
01.07.2021 01:20 13,9 C 13,3 C 15,0 C 97 % 1014,5 hPa 0,0 l/m 0 min 0 min 0 W/m 16,1 km/h (3 Bft) 100,00 %
01.07.2021 01:22 13,9 C 13,3 C 15,0 C 97 % 1014,5 hPa 0,0 l/m 0 min 0 min 0 W/m 6,4 km/h (2 Bft) 100,00 %
01.07.2021 01:24 13,9 C 13,3 C 15,0 C 97 % 1014,5 hPa 0,0 l/m 0 min 0 min 0 W/m 6,4 km/h (2 Bft) 100,00 %
01.07.2021 01:26 13,9 C 13,3 C 15,0 C 97 % 1014,5 hPa 0,0 l/m 0 min 0 min 0 W/m 6,4 km/h (2 Bft) 97,14 %
01.07.2021 01:28 13,9 C 13,3 C 15,0 C 97 % 1014,5 hPa 0,0 l/m 0 min 0 min 0 W/m 6,4 km/h (2 Bft) 100,00 %
01.07.2021 01:30 13,9 C 13,3 C 15,0 C 97 % 1014,5 hPa 0,0 l/m 0 min 0 min 0 W/m 6,4 km/h (2 Bft) 100,00 %
01.07.2021 01:32 13,9 C 13,3 C 15,0 C 97 % 1014,5 hPa 0,0 l/m 0 min 0 min 0 W/m 6,4 km/h (2 Bft) 100,00 %
01.07.2021 01:34 13,9 C 13,3 C 15,0 C 97 % 1014,6 hPa 0,0 l/m 0 min 0 min 0 W/m 6,4 km/h (2 Bft) 100,00 %
01.07.2021 01:36 13,9 C 13,3 C 15,0 C 97 % 1014,5 hPa 0,0 l/m 0 min 0 min 0 W/m 6,4 km/h (2 Bft) 96,00 %
01.07.2021 01:38 13,9 C 13,3 C 15,0 C 97 % 1014,5 hPa 0,0 l/m 0 min 0 min 0 W/m 6,4 km/h (2 Bft) 100,00 %
01.07.2021 01:40 13,9 C 13,3 C 15,0 C 97 % 1014,5 hPa 0,0 l/m 0 min 0 min 0 W/m 3,2 km/h (1 Bft) 100,00 %
01.07.2021 01:42 13,9 C 13,3 C 15,0 C 97 % 1014,6 hPa 0,0 l/m 0 min 0 min 0 W/m 6,4 km/h (2 Bft) 100,00 %
01.07.2021 01:44 13,9 C 13,3 C 15,0 C 97 % 1014,5 hPa 0,0 l/m 0 min 0 min 0 W/m 9,7 km/h (2 Bft) 100,00 %
01.07.2021 01:46 13,9 C 13,3 C 15,0 C 97 % 1014,6 hPa 0,0 l/m 0 min 0 min 0 W/m 3,2 km/h (1 Bft) 98,18 %
01.07.2021 01:48 13,9 C 13,3 C 15,0 C 97 % 1014,5 hPa 0,0 l/m 0 min 0 min 0 W/m 6,4 km/h (2 Bft) 100,00 %
01.07.2021 01:50 13,9 C 13,3 C 15,0 C 97 % 1014,5 hPa 0,0 l/m 0 min 0 min 0 W/m 6,4 km/h (2 Bft) 100,00 %
01.07.2021 01:52 13,9 C 13,3 C 15,0 C 97 % 1014,5 hPa 0,0 l/m 0 min 0 min 0 W/m 6,4 km/h (2 Bft) 100,00 %
01.07.2021 01:54 13,9 C 13,3 C 15,0 C 97 % 1014,5 hPa 0,0 l/m 0 min 0 min 0 W/m 3,2 km/h (1 Bft) 97,87 %
01.07.2021 01:56 13,9 C 13,3 C 15,0 C 97 % 1014,5 hPa 0,0 l/m 0 min 0 min 0 W/m 6,4 km/h (2 Bft) 93,62 %
01.07.2021 01:58 13,9 C 13,3 C 15,0 C 97 % 1014,5 hPa 0,0 l/m 0 min 0 min 0 W/m 6,4 km/h (2 Bft) 97,83 %
01.07.2021 02:00 13,9 C 13,3 C 15,0 C 97 % 1014,4 hPa 0,0 l/m 0 min 0 min 0 W/m 6,4 km/h (2 Bft) 91,49 %
01.07.2021 02:02 14,0 C 13,3 C 15,0 C 97 % 1014,5 hPa 0,0 l/m 0 min 0 min 0 W/m 6,4 km/h (2 Bft) 94,29 %
01.07.2021 02:04 14,0 C 13,3 C 15,0 C 98 % 1014,5 hPa 0,0 l/m 0 min 0 min 0 W/m 3,2 km/h (1 Bft) 95,74 %
01.07.2021 02:06 14,0 C 13,3 C 15,0 C 97 % 1014,5 hPa 0,0 l/m 0 min 0 min 0 W/m 3,2 km/h (1 Bft) 95,74 %
01.07.2021 02:08 14,0 C 13,3 C 15,0 C 97 % 1014,6 hPa 0,0 l/m 0 min 0 min 0 W/m 6,4 km/h (2 Bft) 94,44 %
01.07.2021 02:10 13,9 C 13,3 C 15,0 C 97 % 1014,5 hPa 0,0 l/m 0 min 0 min 0 W/m 6,4 km/h (2 Bft) 95,74 %
01.07.2021 02:12 13,9 C 13,3 C 15,0 C 98 % 1014,5 hPa 0,0 l/m 0 min 0 min 0 W/m 12,9 km/h (3 Bft) 96,00 %
01.07.2021 02:14 13,9 C 13,3 C 15,0 C 97 % 1014,5 hPa 0,0 l/m 0 min 0 min 0 W/m 6,4 km/h (2 Bft) 93,62 %
01.07.2021 02:16 13,9 C 13,3 C 15,0 C 98 % 1014,5 hPa 0,0 l/m 0 min 0 min 0 W/m 6,4 km/h (2 Bft) 95,83 %
01.07.2021 02:18 13,9 C 13,3 C 15,0 C 97 % 1014,5 hPa 0,0 l/m 0 min 0 min 0 W/m 6,4 km/h (2 Bft) 97,14 %
01.07.2021 02:20 13,9 C 13,3 C 15,0 C 97 % 1014,5 hPa 0,0 l/m 0 min 0 min 0 W/m 6,4 km/h (2 Bft) 94,44 %
01.07.2021 02:22 13,9 C 13,3 C 15,0 C 98 % 1014,5 hPa 0,0 l/m 0 min 0 min 0 W/m 6,4 km/h (2 Bft) 93,62 %
01.07.2021 02:24 13,9 C 13,3 C 15,0 C 98 % 1014,6 hPa 0,0 l/m 0 min 0 min 0 W/m 6,4 km/h (2 Bft) 96,00 %
01.07.2021 02:26 13,9 C 13,3 C 15,0 C 98 % 1014,6 hPa 0,0 l/m 0 min 0 min 0 W/m 12,9 km/h (3 Bft) 95,83 %
01.07.2021 02:28 13,9 C 13,3 C 15,0 C 98 % 1014,6 hPa 0,0 l/m 0 min 0 min 0 W/m 6,4 km/h (2 Bft) 95,74 %
01.07.2021 02:30 13,9 C 13,3 C 15,0 C 97 % 1014,5 hPa 0,0 l/m 0 min 0 min 0 W/m 6,4 km/h (2 Bft) 94,29 %
01.07.2021 02:32 13,9 C 13,3 C 15,0 C 97 % 1014,6 hPa 0,0 l/m 0 min 0 min 0 W/m 6,4 km/h (2 Bft) 95,74 %
01.07.2021 02:34 13,9 C 13,3 C 15,0 C 97 % 1014,5 hPa 0,0 l/m 0 min 0 min 0 W/m 6,4 km/h (2 Bft) 94,55 %
01.07.2021 02:36 13,9 C 13,3 C 15,0 C 97 % 1014,5 hPa 0,0 l/m 0 min 0 min 0 W/m 6,4 km/h (2 Bft) 95,74 %
01.07.2021 02:38 13,9 C 13,3 C 15,0 C 97 % 1014,5 hPa 0,0 l/m 0 min 0 min 0 W/m 6,4 km/h (2 Bft) 93,62 %
01.07.2021 02:40 13,9 C 13,3 C 15,0 C 97 % 1014,6 hPa 0,0 l/m 0 min 0 min 0 W/m 6,4 km/h (2 Bft) 95,74 %
01.07.2021 02:42 13,9 C 13,3 C 15,0 C 97 % 1014,5 hPa 0,0 l/m 0 min 0 min 0 W/m 6,4 km/h (2 Bft) 95,65 %
01.07.2021 02:44 13,9 C 13,3 C 15,0 C 97 % 1014,6 hPa 0,0 l/m 0 min 0 min 0 W/m 6,4 km/h (2 Bft) 98,00 %
01.07.2021 02:46 13,9 C 13,3 C 15,0 C 97 % 1014,6 hPa 0,0 l/m 0 min 0 min 0 W/m 6,4 km/h (2 Bft) 100,00 %
01.07.2021 02:48 13,9 C 13,3 C 15,0 C 97 % 1014,6 hPa 0,0 l/m 0 min 0 min 0 W/m 9,7 km/h (2 Bft) 100,00 %
01.07.2021 02:50 13,9 C 13,3 C 15,0 C 97 % 1014,6 hPa 0,0 l/m 0 min 0 min 0 W/m 12,9 km/h (3 Bft) 97,87 %
01.07.2021 02:52 13,8 C 13,3 C 15,0 C 97 % 1014,6 hPa 0,0 l/m 0 min 0 min 0 W/m 9,7 km/h (2 Bft) 100,00 %
01.07.2021 02:54 13,8 C 13,3 C 15,0 C 97 % 1014,5 hPa 0,0 l/m 0 min 0 min 0 W/m 9,7 km/h (2 Bft) 100,00 %
01.07.2021 02:56 13,8 C 13,3 C 15,0 C 97 % 1014,6 hPa 0,0 l/m 0 min 0 min 0 W/m 16,1 km/h (3 Bft) 100,00 %
01.07.2021 02:58 13,8 C 13,3 C 15,0 C 97 % 1014,6 hPa 0,0 l/m 0 min 0 min 0 W/m 6,4 km/h (2 Bft) 100,00 %
01.07.2021 03:00 13,8 C 13,3 C 15,0 C 97 % 1014,6 hPa 0,0 l/m 0 min 0 min 0 W/m 12,9 km/h (3 Bft) 100,00 %
01.07.2021 03:02 13,8 C 13,3 C 15,0 C 97 % 1014,6 hPa 0,0 l/m 0 min 0 min 0 W/m 12,9 km/h (3 Bft) 100,00 %
01.07.2021 03:04 13,8 C 13,3 C 15,0 C 97 % 1014,6 hPa 0,0 l/m 0 min 0 min 0 W/m 12,9 km/h (3 Bft) 100,00 %
01.07.2021 03:06 13,8 C 13,3 C 15,0 C 97 % 1014,7 hPa 0,0 l/m 0 min 0 min 0 W/m 6,4 km/h (2 Bft) 100,00 %
01.07.2021 03:08 13,8 C 13,3 C 15,0 C 97 % 1014,6 hPa 0,0 l/m 0 min 0 min 0 W/m 9,7 km/h (2 Bft) 100,00 %
01.07.2021 03:10 13,8 C 13,3 C 15,0 C 97 % 1014,7 hPa 0,0 l/m 0 min 0 min 0 W/m 6,4 km/h (2 Bft) 97,87 %
01.07.2021 03:12 13,8 C 13,3 C 15,0 C 97 % 1014,6 hPa 0,0 l/m 0 min 0 min 0 W/m 6,4 km/h (2 Bft) 100,00 %
01.07.2021 03:14 13,8 C 13,3 C 15,0 C 97 % 1014,6 hPa 0,0 l/m 0 min 0 min 0 W/m 9,7 km/h (2 Bft) 100,00 %
01.07.2021 03:16 13,8 C 13,3 C 15,0 C 97 % 1014,6 hPa 0,0 l/m 0 min 0 min 0 W/m 19,3 km/h (3 Bft) 97,96 %
01.07.2021 03:18 13,8 C 13,3 C 15,0 C 97 % 1014,6 hPa 0,0 l/m 0 min 0 min 0 W/m 9,7 km/h (2 Bft) 100,00 %
01.07.2021 03:20 13,8 C 13,3 C 15,0 C 97 % 1014,7 hPa 0,0 l/m 0 min 0 min 0 W/m 12,9 km/h (3 Bft) 100,00 %
01.07.2021 03:22 13,8 C 13,3 C 15,0 C 97 % 1014,6 hPa 0,0 l/m 0 min 0 min 0 W/m 12,9 km/h (3 Bft) 97,87 %
01.07.2021 03:24 13,8 C 13,3 C 15,0 C 97 % 1014,6 hPa 0,0 l/m 0 min 0 min 0 W/m 12,9 km/h (3 Bft) 97,87 %
01.07.2021 03:26 13,7 C 13,3 C 15,0 C 97 % 1014,6 hPa 0,0 l/m 0 min 0 min 0 W/m 12,9 km/h (3 Bft) 97,87 %
01.07.2021 03:28 13,8 C 13,3 C 15,0 C 97 % 1014,6 hPa 0,0 l/m 0 min 0 min 0 W/m 9,7 km/h (2 Bft) 100,00 %
01.07.2021 03:30 13,8 C 13,3 C 15,0 C 97 % 1014,6 hPa 0,0 l/m 0 min 0 min 0 W/m 6,4 km/h (2 Bft) 100,00 %
01.07.2021 03:32 13,8 C 13,3 C 15,0 C 97 % 1014,6 hPa 0,0 l/m 0 min 0 min 0 W/m 6,4 km/h (2 Bft) 100,00 %
01.07.2021 03:34 13,8 C 13,3 C 15,0 C 97 % 1014,5 hPa 0,0 l/m 0 min 0 min 0 W/m 9,7 km/h (2 Bft) 100,00 %
01.07.2021 03:36 13,7 C 13,3 C 15,0 C 97 % 1014,6 hPa 0,0 l/m 0 min 0 min 0 W/m 12,9 km/h (3 Bft) 100,00 %
01.07.2021 03:38 13,7 C 13,3 C 15,0 C 97 % 1014,6 hPa 0,0 l/m 0 min 0 min 0 W/m 12,9 km/h (3 Bft) 100,00 %
01.07.2021 03:40 13,7 C 13,3 C 15,0 C 97 % 1014,6 hPa 0,0 l/m 0 min 0 min 0 W/m 9,7 km/h (2 Bft) 100,00 %
01.07.2021 03:42 13,7 C 13,3 C 15,0 C 97 % 1014,5 hPa 0,0 l/m 0 min 0 min 0 W/m 9,7 km/h (2 Bft) 100,00 %
01.07.2021 03:44 13,7 C 13,3 C 15,0 C 97 % 1014,5 hPa 0,0 l/m 0 min 0 min 0 W/m 9,7 km/h (2 Bft) 100,00 %
01.07.2021 03:46 13,7 C 13,3 C 15,0 C 97 % 1014,5 hPa 0,0 l/m 0 min 0 min 0 W/m 9,7 km/h (2 Bft) 100,00 %
01.07.2021 03:48 13,6 C 13,3 C 15,0 C 97 % 1014,5 hPa 0,0 l/m 0 min 0 min 0 W/m 6,4 km/h (2 Bft) 100,00 %
01.07.2021 03:50 13,7 C 13,3 C 15,0 C 97 % 1014,5 hPa 0,0 l/m 0 min 0 min 0 W/m 12,9 km/h (3 Bft) 100,00 %
01.07.2021 03:52 13,7 C 13,3 C 15,0 C 97 % 1014,5 hPa 0,0 l/m 0 min 0 min 0 W/m 9,7 km/h (2 Bft) 98,18 %
01.07.2021 03:54 13,7 C 13,3 C 15,0 C 97 % 1014,5 hPa 0,0 l/m 0 min 0 min 0 W/m 9,7 km/h (2 Bft) 100,00 %
01.07.2021 03:56 13,7 C 13,3 C 15,0 C 97 % 1014,5 hPa 0,0 l/m 0 min 0 min 0 W/m 12,9 km/h (3 Bft) 100,00 %
01.07.2021 03:58 13,7 C 13,3 C 15,0 C 97 % 1014,4 hPa 0,0 l/m 0 min 0 min 0 W/m 6,4 km/h (2 Bft) 97,87 %
01.07.2021 04:00 13,7 C 13,3 C 15,0 C 97 % 1014,5 hPa 0,0 l/m 0 min 0 min 0 W/m 9,7 km/h (2 Bft) 98,21 %
01.07.2021 04:02 13,8 C 13,3 C 15,0 C 97 % 1014,5 hPa 0,0 l/m 0 min 0 min 0 W/m 6,4 km/h (2 Bft) 94,87 %
01.07.2021 04:04 13,8 C 13,3 C 15,0 C 97 % 1014,5 hPa 0,0 l/m 0 min 0 min 0 W/m 6,4 km/h (2 Bft) 100,00 %
01.07.2021 04:06 13,8 C 13,3 C 15,0 C 97 % 1014,5 hPa 0,0 l/m 0 min 0 min 0 W/m 6,4 km/h (2 Bft) 100,00 %
01.07.2021 04:08 13,8 C 13,3 C 15,0 C 97 % 1014,5 hPa 0,0 l/m 0 min 0 min 0 W/m 6,4 km/h (2 Bft) 97,14 %
01.07.2021 04:10 13,8 C 13,3 C 15,0 C 97 % 1014,5 hPa 0,0 l/m 0 min 0 min 0 W/m 6,4 km/h (2 Bft) 100,00 %
01.07.2021 04:12 13,8 C 13,3 C 15,0 C 97 % 1014,5 hPa 0,0 l/m 0 min 0 min 0 W/m 6,4 km/h (2 Bft) 100,00 %
01.07.2021 04:14 13,8 C 13,3 C 15,0 C 97 % 1014,5 hPa 0,0 l/m 0 min 0 min 0 W/m 16,1 km/h (3 Bft) 100,00 %
01.07.2021 04:16 13,8 C 13,3 C 15,0 C 97 % 1014,5 hPa 0,0 l/m 0 min 0 min 0 W/m 12,9 km/h (3 Bft) 100,00 %
01.07.2021 04:18 13,8 C 13,3 C 15,0 C 97 % 1014,5 hPa 0,0 l/m 0 min 0 min 0 W/m 6,4 km/h (2 Bft) 100,00 %
01.07.2021 04:20 13,8 C 12,8 C 15,0 C 97 % 1014,5 hPa 0,0 l/m 0 min 0 min 0 W/m 6,4 km/h (2 Bft) 100,00 %
01.07.2021 04:22 13,8 C 12,8 C 15,0 C 97 % 1014,5 hPa 0,0 l/m 0 min 0 min 0 W/m 6,4 km/h (2 Bft) 100,00 %
01.07.2021 04:24 13,8 C 12,8 C 14,5 C 97 % 1014,5 hPa 0,0 l/m 0 min 0 min 0 W/m 6,4 km/h (2 Bft) 100,00 %
01.07.2021 04:26 13,8 C 12,8 C 15,0 C 97 % 1014,5 hPa 0,0 l/m 0 min 0 min 0 W/m 6,4 km/h (2 Bft) 100,00 %
01.07.2021 04:28 13,8 C 13,3 C 15,0 C 98 % 1014,5 hPa 0,0 l/m 0 min 0 min 0 W/m 6,4 km/h (2 Bft) 97,87 %
01.07.2021 04:30 13,8 C 13,3 C 15,0 C 98 % 1014,5 hPa 0,0 l/m 0 min 0 min 0 W/m 3,2 km/h (1 Bft) 100,00 %
01.07.2021 04:32 13,8 C 13,3 C 15,0 C 98 % 1014,6 hPa 0,0 l/m 0 min 0 min 0 W/m 9,7 km/h (2 Bft) 98,21 %
01.07.2021 04:34 13,7 C 13,3 C 15,0 C 98 % 1014,5 hPa 0,0 l/m 0 min 0 min 0 W/m 6,4 km/h (2 Bft) 100,00 %
01.07.2021 04:36 13,7 C 12,8 C 15,0 C 98 % 1014,5 hPa 0,0 l/m 0 min 0 min 0 W/m 6,4 km/h (2 Bft) 100,00 %
01.07.2021 04:38 13,7 C 13,3 C 15,0 C 98 % 1014,5 hPa 0,0 l/m 0 min 0 min 0 W/m 3,2 km/h (1 Bft) 100,00 %
01.07.2021 04:40 13,7 C 12,8 C 15,0 C 98 % 1014,5 hPa 0,0 l/m 0 min 0 min 0 W/m 12,9 km/h (3 Bft) 100,00 %
01.07.2021 04:42 13,6 C 13,3 C 15,0 C 98 % 1014,4 hPa 0,0 l/m 0 min 0 min 0 W/m 9,7 km/h (2 Bft) 98,18 %
01.07.2021 04:44 13,6 C 13,3 C 15,0 C 98 % 1014,5 hPa 0,0 l/m 0 min 0 min 0 W/m 12,9 km/h (3 Bft) 100,00 %
01.07.2021 04:46 13,6 C 13,3 C 15,0 C 98 % 1014,4 hPa 0,0 l/m 0 min 0 min 0 W/m 6,4 km/h (2 Bft) 100,00 %
01.07.2021 04:48 13,6 C 12,8 C 15,0 C 98 % 1014,4 hPa 0,0 l/m 0 min 0 min 0 W/m 6,4 km/h (2 Bft) 100,00 %
01.07.2021 04:50 13,6 C 12,8 C 15,0 C 98 % 1014,4 hPa 0,0 l/m 0 min 0 min 0 W/m 12,9 km/h (3 Bft) 97,87 %
01.07.2021 04:52 13,6 C 12,8 C 15,0 C 98 % 1014,4 hPa 0,0 l/m 0 min 0 min 0 W/m 12,9 km/h (3 Bft) 90,91 %
01.07.2021 04:54 13,6 C 13,3 C 15,0 C 98 % 1014,4 hPa 0,0 l/m 0 min 0 min 0 W/m 6,4 km/h (2 Bft) 96,00 %
01.07.2021 04:56 13,6 C 12,8 C 15,0 C 98 % 1014,4 hPa 0,0 l/m 0 min 0 min 0 W/m 6,4 km/h (2 Bft) 97,14 %
01.07.2021 04:58 13,6 C 12,8 C 15,0 C 98 % 1014,5 hPa 0,0 l/m 0 min 0 min 0 W/m 6,4 km/h (2 Bft) 95,74 %
01.07.2021 05:00 13,7 C 12,8 C 15,0 C 98 % 1014,5 hPa 0,0 l/m 0 min 2 min 0 W/m 12,9 km/h (3 Bft) 96,36 %
01.07.2021 05:02 13,7 C 12,8 C 15,0 C 98 % 1014,5 hPa 0,0 l/m 0 min 2 min 0 W/m 6,4 km/h (2 Bft) 95,74 %
01.07.2021 05:04 13,7 C 12,8 C 15,0 C 98 % 1014,5 hPa 0,0 l/m 0 min 0 min 0 W/m 6,4 km/h (2 Bft) 96,00 %
01.07.2021 05:06 13,7 C 12,8 C 15,0 C 98 % 1014,5 hPa 0,0 l/m 0 min 2 min 0 W/m 6,4 km/h (2 Bft) 94,44 %
01.07.2021 05:08 13,7 C 12,8 C 15,0 C 98 % 1014,5 hPa 0,0 l/m 0 min 2 min 0 W/m 12,9 km/h (3 Bft) 95,74 %
01.07.2021 05:10 13,7 C 12,8 C 15,0 C 98 % 1014,5 hPa 0,2 l/m 0 min 2 min 0 W/m 6,4 km/h (2 Bft) 95,74 %
01.07.2021 05:12 13,7 C 12,8 C 15,0 C 98 % 1014,4 hPa 0,0 l/m 0 min 0 min 0 W/m 3,2 km/h (1 Bft) 94,44 %
01.07.2021 05:14 13,7 C 12,8 C 15,0 C 98 % 1014,4 hPa 0,0 l/m 0 min 0 min 0 W/m 12,9 km/h (3 Bft) 94,00 %
01.07.2021 05:16 13,7 C 12,8 C 14,5 C 98 % 1014,5 hPa 0,2 l/m 0 min 0 min 0 W/m 6,4 km/h (2 Bft) 94,44 %
01.07.2021 05:18 13,7 C 12,8 C 14,5 C 98 % 1014,4 hPa 0,0 l/m 0 min 0 min 0 W/m 6,4 km/h (2 Bft) 95,74 %
01.07.2021 05:20 13,7 C 12,8 C 14,5 C 98 % 1014,5 hPa 0,0 l/m 0 min 0 min 0 W/m 3,2 km/h (1 Bft) 92,73 %
01.07.2021 05:22 13,7 C 12,8 C 14,5 C 98 % 1014,4 hPa 0,0 l/m 0 min 0 min 0 W/m 6,4 km/h (2 Bft) 96,00 %
01.07.2021 05:24 13,7 C 12,8 C 14,5 C 98 % 1014,4 hPa 0,0 l/m 0 min 0 min 0 W/m 9,7 km/h (2 Bft) 94,44 %
01.07.2021 05:26 13,6 C 12,8 C 14,5 C 98 % 1014,4 hPa 0,0 l/m 0 min 0 min 0 W/m 16,1 km/h (3 Bft) 93,62 %
01.07.2021 05:28 13,6 C 12,8 C 14,5 C 98 % 1014,4 hPa 0,0 l/m 0 min 0 min 0 W/m 6,4 km/h (2 Bft) 94,44 %
01.07.2021 05:30 13,5 C 12,8 C 14,5 C 98 % 1014,4 hPa 0,0 l/m 0 min 0 min 0 W/m 16,1 km/h (3 Bft) 95,74 %
01.07.2021 05:32 13,5 C 12,8 C 14,5 C 98 % 1014,5 hPa 0,0 l/m 0 min 0 min 0 W/m 12,9 km/h (3 Bft) 95,74 %
01.07.2021 05:34 13,5 C 12,8 C 14,5 C 98 % 1014,4 hPa 0,0 l/m 0 min 0 min 0 W/m 12,9 km/h (3 Bft) 94,87 %
01.07.2021 05:36 13,4 C 12,8 C 14,5 C 98 % 1014,4 hPa 0,0 l/m 0 min 0 min 0 W/m 12,9 km/h (3 Bft) 97,87 %
01.07.2021 05:38 13,4 C 12,8 C 14,5 C 98 % 1014,5 hPa 0,0 l/m 0 min 0 min 0 W/m 12,9 km/h (3 Bft) 95,74 %
01.07.2021 05:40 13,3 C 12,8 C 14,5 C 98 % 1014,5 hPa 0,0 l/m 0 min 0 min 0 W/m 6,4 km/h (2 Bft) 97,83 %
01.07.2021 05:42 13,3 C 12,8 C 14,5 C 98 % 1014,5 hPa 0,0 l/m 0 min 0 min 0 W/m 9,7 km/h (2 Bft) 97,87 %
01.07.2021 05:44 13,3 C 12,8 C 14,5 C 98 % 1014,5 hPa 0,0 l/m 0 min 0 min 0 W/m 6,4 km/h (2 Bft) 100,00 %
01.07.2021 05:46 13,3 C 12,8 C 14,5 C 98 % 1014,5 hPa 0,0 l/m 0 min 2 min 0 W/m 9,7 km/h (2 Bft) 100,00 %
01.07.2021 05:48 13,3 C 12,8 C 14,5 C 98 % 1014,5 hPa 0,0 l/m 0 min 2 min 0 W/m 6,4 km/h (2 Bft) 100,00 %
01.07.2021 05:50 13,2 C 12,2 C 14,5 C 98 % 1014,5 hPa 0,0 l/m 0 min 2 min 0 W/m 12,9 km/h (3 Bft) 97,87 %
01.07.2021 05:52 13,2 C 12,8 C 14,5 C 98 % 1014,5 hPa 0,0 l/m 0 min 0 min 0 W/m 6,4 km/h (2 Bft) 100,00 %
01.07.2021 05:54 13,2 C 12,8 C 14,5 C 98 % 1014,6 hPa 0,0 l/m 0 min 0 min 0 W/m 9,7 km/h (2 Bft) 100,00 %
01.07.2021 05:56 13,2 C 12,8 C 14,5 C 98 % 1014,6 hPa 0,0 l/m 0 min 0 min 0 W/m 9,7 km/h (2 Bft) 100,00 %
01.07.2021 05:58 13,2 C 12,8 C 14,5 C 98 % 1014,6 hPa 0,0 l/m 0 min 0 min 0 W/m 6,4 km/h (2 Bft) 100,00 %
01.07.2021 06:00 13,3 C 12,8 C 14,5 C 98 % 1014,6 hPa 0,0 l/m 0 min 0 min 0 W/m 6,4 km/h (2 Bft) 100,00 %
01.07.2021 06:02 13,3 C 12,8 C 14,5 C 98 % 1014,6 hPa 0,0 l/m 0 min 0 min 0 W/m 6,4 km/h (2 Bft) 97,92 %
01.07.2021 06:04 13,3 C 12,8 C 14,5 C 98 % 1014,6 hPa 0,0 l/m 0 min 0 min 0 W/m 6,4 km/h (2 Bft) 100,00 %
01.07.2021 06:08 13,3 C 12,8 C 14,5 C 98 % 1014,6 hPa 0,0 l/m 0 min 0 min 0 W/m 12,9 km/h (3 Bft) 98,97 %
01.07.2021 06:10 13,3 C 12,8 C 14,5 C 98 % 1014,7 hPa 0,2 l/m 0 min 0 min 0 W/m 6,4 km/h (2 Bft) 97,87 %
01.07.2021 06:12 13,3 C 12,8 C 14,5 C 98 % 1014,7 hPa 0,0 l/m 0 min 0 min 0 W/m 3,2 km/h (1 Bft) 100,00 %
01.07.2021 06:14 13,3 C 12,8 C 14,5 C 99 % 1014,7 hPa 0,0 l/m 0 min 0 min 2 W/m 6,4 km/h (2 Bft) 97,87 %
01.07.2021 06:16 13,3 C 12,8 C 14,5 C 99 % 1014,7 hPa 0,0 l/m 0 min 0 min 5 W/m 6,4 km/h (2 Bft) 97,83 %
01.07.2021 06:18 13,3 C 12,8 C 14,5 C 99 % 1014,7 hPa 0,0 l/m 0 min 0 min 5 W/m 6,4 km/h (2 Bft) 100,00 %
01.07.2021 06:20 13,3 C 12,8 C 14,5 C 99 % 1014,7 hPa 0,0 l/m 0 min 0 min 7 W/m 6,4 km/h (2 Bft) 100,00 %
01.07.2021 06:22 13,3 C 12,8 C 14,5 C 99 % 1014,7 hPa 0,0 l/m 0 min 0 min 9 W/m 12,9 km/h (3 Bft) 97,67 %
01.07.2021 06:24 13,3 C 12,8 C 14,5 C 99 % 1014,7 hPa 0,0 l/m 0 min 0 min 12 W/m 6,4 km/h (2 Bft) 100,00 %
01.07.2021 06:26 13,3 C 12,8 C 14,5 C 99 % 1014,7 hPa 0,0 l/m 0 min 0 min 14 W/m 16,1 km/h (3 Bft) 100,00 %
01.07.2021 06:28 13,3 C 12,8 C 14,5 C 99 % 1014,7 hPa 0,0 l/m 0 min 0 min 18 W/m 9,7 km/h (2 Bft) 100,00 %
01.07.2021 06:30 13,3 C 12,8 C 14,5 C 99 % 1014,8 hPa 0,0 l/m 0 min 0 min 18 W/m 6,4 km/h (2 Bft) 100,00 %
01.07.2021 06:32 13,3 C 12,8 C 14,5 C 99 % 1014,8 hPa 0,0 l/m 0 min 0 min 14 W/m 12,9 km/h (3 Bft) 97,87 %
01.07.2021 06:34 13,3 C 12,8 C 14,5 C 99 % 1014,8 hPa 0,0 l/m 0 min 0 min 11 W/m 9,7 km/h (2 Bft) 100,00 %
01.07.2021 06:36 13,3 C 12,8 C 14,5 C 99 % 1014,8 hPa 0,0 l/m 0 min 0 min 13 W/m 3,2 km/h (1 Bft) 100,00 %
01.07.2021 06:38 13,3 C 12,8 C 14,5 C 99 % 1014,9 hPa 0,0 l/m 0 min 0 min 17 W/m 6,4 km/h (2 Bft) 97,87 %
01.07.2021 06:40 13,3 C 12,8 C 14,5 C 99 % 1014,8 hPa 0,0 l/m 0 min 0 min 22 W/m 12,9 km/h (3 Bft) 100,00 %
01.07.2021 06:42 13,3 C 12,8 C 14,5 C 99 % 1014,8 hPa 0,0 l/m 0 min 0 min 18 W/m 9,7 km/h (2 Bft) 94,29 %
01.07.2021 06:44 13,3 C 12,8 C 14,5 C 99 % 1014,8 hPa 0,0 l/m 0 min 0 min 15 W/m 3,2 km/h (1 Bft) 100,00 %
01.07.2021 06:46 13,3 C 12,8 C 14,5 C 99 % 1014,8 hPa 0,0 l/m 0 min 0 min 12 W/m 12,9 km/h (3 Bft) 100,00 %
01.07.2021 06:48 13,3 C 12,8 C 14,5 C 99 % 1014,9 hPa 0,0 l/m 0 min 0 min 13 W/m 9,7 km/h (2 Bft) 100,00 %
01.07.2021 06:50 13,3 C 12,8 C 14,5 C 99 % 1014,9 hPa 0,0 l/m 0 min 0 min 13 W/m 6,4 km/h (2 Bft) 100,00 %
01.07.2021 06:52 13,3 C 12,8 C 14,5 C 99 % 1014,9 hPa 0,0 l/m 0 min 0 min 18 W/m 6,4 km/h (2 Bft) 98,00 %
01.07.2021 06:54 13,3 C 12,8 C 14,5 C 99 % 1014,9 hPa 0,0 l/m 0 min 0 min 22 W/m 12,9 km/h (3 Bft) 100,00 %
01.07.2021 06:56 13,3 C 12,8 C 14,5 C 99 % 1014,9 hPa 0,0 l/m 0 min 0 min 18 W/m 6,4 km/h (2 Bft) 100,00 %
01.07.2021 06:58 13,3 C 12,8 C 14,5 C 99 % 1014,9 hPa 0,0 l/m 0 min 0 min 15 W/m 9,7 km/h (2 Bft) 100,00 %
01.07.2021 07:00 13,3 C 12,8 C 14,5 C 99 % 1014,9 hPa 0,0 l/m 0 min 2 min 14 W/m 6,4 km/h (2 Bft) 100,00 %
01.07.2021 07:02 13,3 C 12,8 C 14,5 C 99 % 1014,9 hPa 0,0 l/m 0 min 2 min 18 W/m 12,9 km/h (3 Bft) 100,00 %
01.07.2021 07:04 13,3 C 12,2 C 14,5 C 99 % 1014,9 hPa 0,0 l/m 0 min 2 min 27 W/m 22,5 km/h (4 Bft) 100,00 %
01.07.2021 07:06 13,2 C 12,8 C 14,5 C 99 % 1014,8 hPa 0,0 l/m 0 min 0 min 32 W/m 12,9 km/h (3 Bft) 100,00 %
01.07.2021 07:08 13,2 C 12,8 C 14,5 C 99 % 1014,9 hPa 0,0 l/m 0 min 0 min 33 W/m 12,9 km/h (3 Bft) 100,00 %
01.07.2021 07:10 13,2 C 12,8 C 14,5 C 99 % 1014,8 hPa 0,0 l/m 0 min 0 min 33 W/m 9,7 km/h (2 Bft) 97,83 %
01.07.2021 07:12 13,1 C 12,8 C 14,5 C 99 % 1014,8 hPa 0,0 l/m 0 min 0 min 34 W/m 12,9 km/h (3 Bft) 100,00 %
01.07.2021 07:14 13,2 C 12,8 C 14,5 C 99 % 1014,9 hPa 0,0 l/m 0 min 0 min 35 W/m 12,9 km/h (3 Bft) 100,00 %
01.07.2021 07:16 13,1 C 12,8 C 14,5 C 99 % 1014,8 hPa 0,2 l/m 0 min 0 min 35 W/m 12,9 km/h (3 Bft) 100,00 %
01.07.2021 07:18 13,1 C 12,8 C 14,5 C 99 % 1014,9 hPa 0,0 l/m 0 min 0 min 36 W/m 16,1 km/h (3 Bft) 100,00 %
01.07.2021 07:20 13,1 C 12,8 C 14,5 C 99 % 1014,9 hPa 0,0 l/m 0 min 0 min 31 W/m 9,7 km/h (2 Bft) 100,00 %
01.07.2021 07:22 13,1 C 12,8 C 14,5 C 99 % 1014,9 hPa 0,0 l/m 0 min 0 min 37 W/m 16,1 km/h (3 Bft) 100,00 %
01.07.2021 07:24 13,1 C 12,8 C 14,5 C 99 % 1014,9 hPa 0,0 l/m 0 min 0 min 49 W/m 12,9 km/h (3 Bft) 100,00 %
01.07.2021 07:26 13,1 C 12,8 C 14,5 C 99 % 1014,9 hPa 0,0 l/m 0 min 0 min 54 W/m 9,7 km/h (2 Bft) 100,00 %
01.07.2021 07:28 13,1 C 12,8 C 14,5 C 99 % 1014,9 hPa 0,0 l/m 0 min 0 min 58 W/m 12,9 km/h (3 Bft) 97,87 %
01.07.2021 07:30 13,1 C 12,8 C 14,5 C 99 % 1014,9 hPa 0,0 l/m 0 min 0 min 62 W/m 16,1 km/h (3 Bft) 100,00 %
01.07.2021 07:32 13,1 C 12,8 C 14,5 C 99 % 1014,9 hPa 0,0 l/m 0 min 0 min 62 W/m 9,7 km/h (2 Bft) 100,00 %
01.07.2021 07:34 13,1 C 12,8 C 14,5 C 99 % 1014,8 hPa 0,0 l/m 0 min 0 min 61 W/m 9,7 km/h (2 Bft) 100,00 %
01.07.2021 07:36 13,1 C 12,8 C 14,5 C 99 % 1014,8 hPa 0,0 l/m 0 min 0 min 57 W/m 12,9 km/h (3 Bft) 100,00 %
01.07.2021 07:38 13,1 C 12,8 C 14,5 C 99 % 1014,9 hPa 0,0 l/m 0 min 0 min 54 W/m 9,7 km/h (2 Bft) 97,87 %
01.07.2021 07:40 13,1 C 12,8 C 14,5 C 99 % 1014,9 hPa 0,0 l/m 0 min 0 min 61 W/m 12,9 km/h (3 Bft) 100,00 %
01.07.2021 07:42 13,1 C 12,8 C 14,5 C 99 % 1014,9 hPa 0,0 l/m 0 min 0 min 71 W/m 12,9 km/h (3 Bft) 97,87 %
01.07.2021 07:44 13,1 C 12,8 C 14,5 C 99 % 1014,9 hPa 0,0 l/m 0 min 0 min 74 W/m 12,9 km/h (3 Bft) 97,87 %
01.07.2021 07:46 13,1 C 12,8 C 14,5 C 99 % 1014,8 hPa 0,0 l/m 0 min 0 min 78 W/m 6,4 km/h (2 Bft) 96,36 %
01.07.2021 07:48 13,2 C 12,8 C 14,5 C 99 % 1014,9 hPa 0,0 l/m 0 min 0 min 74 W/m 9,7 km/h (2 Bft) 96,00 %
01.07.2021 07:50 13,2 C 12,8 C 15,0 C 99 % 1014,9 hPa 0,0 l/m 0 min 0 min 74 W/m 9,7 km/h (2 Bft) 94,29 %
01.07.2021 07:52 13,3 C 13,3 C 15,0 C 99 % 1014,8 hPa 0,0 l/m 0 min 0 min 73 W/m 6,4 km/h (2 Bft) 93,62 %
01.07.2021 07:54 13,3 C 13,3 C 15,0 C 99 % 1014,8 hPa 0,0 l/m 0 min 0 min 74 W/m 12,9 km/h (3 Bft) 96,36 %
01.07.2021 07:56 13,3 C 12,8 C 15,0 C 99 % 1014,8 hPa 0,0 l/m 0 min 0 min 65 W/m 12,9 km/h (3 Bft) 95,65 %
01.07.2021 07:58 13,3 C 12,8 C 15,0 C 99 % 1014,8 hPa 0,0 l/m 0 min 0 min 55 W/m 12,9 km/h (3 Bft) 95,74 %
01.07.2021 08:00 13,3 C 12,8 C 15,0 C 99 % 1014,8 hPa 0,0 l/m 0 min 0 min 63 W/m 12,9 km/h (3 Bft) 98,00 %
01.07.2021 08:02 13,3 C 12,8 C 15,0 C 99 % 1014,8 hPa 0,0 l/m 0 min 0 min 61 W/m 12,9 km/h (3 Bft) 93,75 %
01.07.2021 08:04 13,3 C 12,8 C 15,0 C 99 % 1014,9 hPa 0,0 l/m 0 min 0 min 65 W/m 12,9 km/h (3 Bft) 91,49 %
01.07.2021 08:06 13,3 C 12,8 C 14,5 C 99 % 1014,8 hPa 0,0 l/m 0 min 0 min 69 W/m 9,7 km/h (2 Bft) 95,74 %
01.07.2021 08:08 13,3 C 12,8 C 15,0 C 99 % 1014,8 hPa 0,0 l/m 0 min 0 min 72 W/m 16,1 km/h (3 Bft) 93,48 %
01.07.2021 08:10 13,3 C 13,3 C 15,0 C 99 % 1014,8 hPa 0,0 l/m 0 min 0 min 62 W/m 6,4 km/h (2 Bft) 93,62 %
01.07.2021 08:12 13,3 C 13,3 C 15,0 C 99 % 1014,8 hPa 0,0 l/m 0 min 0 min 64 W/m 9,7 km/h (2 Bft) 94,29 %
01.07.2021 08:14 13,3 C 13,3 C 15,0 C 99 % 1014,8 hPa 0,0 l/m 0 min 0 min 67 W/m 6,4 km/h (2 Bft) 96,43 %
01.07.2021 08:16 13,3 C 13,3 C 15,0 C 99 % 1014,8 hPa 0,0 l/m 0 min 0 min 62 W/m 12,9 km/h (3 Bft) 95,83 %
01.07.2021 08:18 13,4 C 13,3 C 15,0 C 99 % 1014,8 hPa 0,0 l/m 0 min 0 min 55 W/m 6,4 km/h (2 Bft) 91,84 %
01.07.2021 08:20 13,4 C 13,3 C 15,0 C 99 % 1014,9 hPa 0,0 l/m 0 min 0 min 52 W/m 12,9 km/h (3 Bft) 95,65 %
01.07.2021 08:22 13,4 C 13,3 C 15,0 C 99 % 1014,9 hPa 0,0 l/m 0 min 0 min 51 W/m 12,9 km/h (3 Bft) 97,22 %
01.07.2021 08:24 13,4 C 13,3 C 15,0 C 98 % 1014,9 hPa 0,0 l/m 0 min 0 min 51 W/m 6,4 km/h (2 Bft) 93,48 %
01.07.2021 08:26 13,4 C 13,3 C 15,0 C 98 % 1014,9 hPa 0,0 l/m 0 min 0 min 55 W/m 6,4 km/h (2 Bft) 97,87 %
01.07.2021 08:28 13,4 C 13,3 C 15,0 C 98 % 1014,9 hPa 0,0 l/m 0 min 0 min 62 W/m 6,4 km/h (2 Bft) 98,31 %
01.07.2021 08:30 13,4 C 13,3 C 15,0 C 98 % 1014,9 hPa 0,0 l/m 0 min 0 min 65 W/m 3,2 km/h (1 Bft) 97,87 %
01.07.2021 08:32 13,4 C 13,3 C 15,0 C 98 % 1015,0 hPa 0,0 l/m 0 min 0 min 64 W/m 12,9 km/h (3 Bft) 97,83 %
01.07.2021 08:34 13,4 C 13,3 C 15,0 C 98 % 1015,0 hPa 0,0 l/m 0 min 0 min 64 W/m 6,4 km/h (2 Bft) 97,87 %
01.07.2021 08:36 13,5 C 13,3 C 15,0 C 98 % 1015,0 hPa 0,0 l/m 0 min 0 min 72 W/m 6,4 km/h (2 Bft) 95,74 %
01.07.2021 08:38 13,5 C 13,3 C 15,0 C 98 % 1015,0 hPa 0,0 l/m 0 min 0 min 93 W/m 12,9 km/h (3 Bft) 97,87 %
01.07.2021 08:40 13,5 C 13,3 C 15,0 C 98 % 1015,0 hPa 0,0 l/m 0 min 0 min 99 W/m 12,9 km/h (3 Bft) 97,87 %
01.07.2021 08:42 13,5 C 13,3 C 15,0 C 98 % 1015,0 hPa 0,0 l/m 0 min 0 min 96 W/m 12,9 km/h (3 Bft) 97,62 %
01.07.2021 08:44 13,5 C 13,3 C 15,0 C 98 % 1015,0 hPa 0,0 l/m 0 min 0 min 99 W/m 9,7 km/h (2 Bft) 100,00 %
01.07.2021 08:46 13,5 C 13,3 C 15,0 C 98 % 1015,0 hPa 0,0 l/m 0 min 0 min 103 W/m 6,4 km/h (2 Bft) 95,74 %
01.07.2021 08:47 13,6 C 13,3 C 15,0 C 98 % 1015,0 hPa 0,0 l/m 0 min 0 min 99 W/m 12,9 km/h (3 Bft) 100,00 %
01.07.2021 08:50 13,5 C 13,3 C 15,0 C 98 % 1015,0 hPa 0,0 l/m 0 min 0 min 85 W/m 16,1 km/h (3 Bft) 97,96 %
01.07.2021 08:52 13,6 C 13,3 C 15,0 C 98 % 1014,9 hPa 0,0 l/m 0 min 0 min 86 W/m 19,3 km/h (3 Bft) 100,00 %
01.07.2021 08:54 13,6 C 13,3 C 15,0 C 98 % 1015,0 hPa 0,0 l/m 0 min 0 min 77 W/m 16,1 km/h (3 Bft) 97,87 %
01.07.2021 08:56 13,6 C 13,3 C 15,0 C 98 % 1015,0 hPa 0,0 l/m 0 min 0 min 95 W/m 16,1 km/h (3 Bft) 100,00 %
01.07.2021 08:58 13,6 C 13,3 C 15,0 C 98 % 1015,1 hPa 0,0 l/m 0 min 0 min 111 W/m 22,5 km/h (4 Bft) 98,00 %
01.07.2021 09:00 13,6 C 13,3 C 15,0 C 97 % 1015,1 hPa 0,0 l/m 0 min 0 min 118 W/m 6,4 km/h (2 Bft) 100,00 %
01.07.2021 09:02 13,6 C 13,3 C 15,0 C 97 % 1015,1 hPa 0,0 l/m 0 min 0 min 114 W/m 12,9 km/h (3 Bft) 100,00 %
01.07.2021 09:04 13,6 C 13,9 C 15,0 C 97 % 1015,1 hPa 0,0 l/m 0 min 0 min 126 W/m 6,4 km/h (2 Bft) 100,00 %
01.07.2021 09:06 13,6 C 13,9 C 15,0 C 97 % 1015,1 hPa 0,0 l/m 0 min 0 min 122 W/m 16,1 km/h (3 Bft) 100,00 %
01.07.2021 09:08 13,7 C 13,9 C 15,6 C 97 % 1015,1 hPa 0,0 l/m 0 min 0 min 143 W/m 9,7 km/h (2 Bft) 100,00 %
01.07.2021 09:10 13,8 C 13,9 C 15,6 C 97 % 1015,2 hPa 0,0 l/m 0 min 0 min 131 W/m 16,1 km/h (3 Bft) 100,00 %
01.07.2021 09:12 13,8 C 13,9 C 15,6 C 97 % 1015,2 hPa 0,0 l/m 0 min 0 min 131 W/m 12,9 km/h (3 Bft) 100,00 %
01.07.2021 09:14 13,8 C 13,9 C 15,0 C 97 % 1015,2 hPa 0,0 l/m 0 min 0 min 108 W/m 12,9 km/h (3 Bft) 100,00 %
01.07.2021 09:16 13,8 C 13,9 C 15,0 C 97 % 1015,2 hPa 0,0 l/m 0 min 0 min 98 W/m 16,1 km/h (3 Bft) 100,00 %
01.07.2021 09:18 13,8 C 13,3 C 15,0 C 96 % 1015,2 hPa 0,0 l/m 0 min 0 min 103 W/m 16,1 km/h (3 Bft) 100,00 %
01.07.2021 09:20 13,8 C 13,3 C 15,0 C 96 % 1015,2 hPa 0,0 l/m 0 min 0 min 102 W/m 12,9 km/h (3 Bft) 100,00 %
01.07.2021 09:22 13,8 C 13,9 C 15,0 C 96 % 1015,2 hPa 0,0 l/m 0 min 0 min 126 W/m 16,1 km/h (3 Bft) 100,00 %
01.07.2021 09:24 13,9 C 13,9 C 15,6 C 96 % 1015,3 hPa 0,0 l/m 0 min 0 min 151 W/m 12,9 km/h (3 Bft) 100,00 %
01.07.2021 09:26 13,9 C 13,9 C 15,6 C 96 % 1015,3 hPa 0,0 l/m 0 min 0 min 116 W/m 6,4 km/h (2 Bft) 100,00 %
01.07.2021 09:28 13,9 C 13,9 C 15,6 C 96 % 1015,3 hPa 0,0 l/m 0 min 0 min 106 W/m 9,7 km/h (2 Bft) 100,00 %
01.07.2021 09:30 13,9 C 13,9 C 15,6 C 96 % 1015,3 hPa 0,0 l/m 0 min 0 min 112 W/m 16,1 km/h (3 Bft) 100,00 %
01.07.2021 09:32 13,9 C 13,9 C 15,6 C 96 % 1015,2 hPa 0,0 l/m 0 min 0 min 120 W/m 9,7 km/h (2 Bft) 100,00 %
01.07.2021 09:34 13,9 C 13,9 C 15,6 C 96 % 1015,3 hPa 0,0 l/m 0 min 0 min 156 W/m 6,4 km/h (2 Bft) 100,00 %
01.07.2021 09:36 13,9 C 13,9 C 15,6 C 96 % 1015,2 hPa 0,0 l/m 0 min 0 min 174 W/m 6,4 km/h (2 Bft) 100,00 %
01.07.2021 09:38 14,0 C 13,9 C 15,6 C 96 % 1015,3 hPa 0,0 l/m 0 min 0 min 192 W/m 12,9 km/h (3 Bft) 100,00 %
01.07.2021 09:40 14,0 C 14,4 C 15,6 C 95 % 1015,3 hPa 0,0 l/m 0 min 0 min 221 W/m 12,9 km/h (3 Bft) 97,87 %
01.07.2021 09:42 14,1 C 14,4 C 15,6 C 95 % 1015,3 hPa 0,0 l/m 0 min 0 min 230 W/m 3,2 km/h (1 Bft) 100,00 %
01.07.2021 09:44 14,2 C 14,4 C 16,1 C 96 % 1015,3 hPa 0,0 l/m 0 min 0 min 201 W/m 9,7 km/h (2 Bft) 100,00 %
01.07.2021 09:46 14,2 C 14,4 C 15,6 C 96 % 1015,3 hPa 0,0 l/m 0 min 0 min 207 W/m 19,3 km/h (3 Bft) 100,00 %
01.07.2021 09:48 14,2 C 14,4 C 16,1 C 95 % 1015,3 hPa 0,0 l/m 0 min 0 min 219 W/m 12,9 km/h (3 Bft) 97,87 %
01.07.2021 09:50 14,2 C 14,4 C 15,6 C 95 % 1015,3 hPa 0,0 l/m 0 min 0 min 208 W/m 12,9 km/h (3 Bft) 100,00 %
01.07.2021 09:52 14,2 C 14,4 C 15,6 C 95 % 1015,3 hPa 0,0 l/m 0 min 0 min 200 W/m 9,7 km/h (2 Bft) 95,65 %
01.07.2021 09:54 14,2 C 14,4 C 15,6 C 95 % 1015,4 hPa 0,0 l/m 0 min 0 min 177 W/m 9,7 km/h (2 Bft) 100,00 %
01.07.2021 09:56 14,2 C 14,4 C 16,1 C 94 % 1015,3 hPa 0,0 l/m 0 min 0 min 159 W/m 12,9 km/h (3 Bft) 100,00 %
01.07.2021 09:58 14,2 C 14,4 C 16,1 C 94 % 1015,3 hPa 0,0 l/m 0 min 0 min 142 W/m 16,1 km/h (3 Bft) 100,00 %
01.07.2021 10:00 14,2 C 14,4 C 15,6 C 94 % 1015,4 hPa 0,0 l/m 0 min 0 min 151 W/m 6,4 km/h (2 Bft) 100,00 %
01.07.2021 10:02 14,2 C 14,4 C 15,6 C 94 % 1015,3 hPa 0,0 l/m 0 min 0 min 161 W/m 16,1 km/h (3 Bft) 97,22 %
01.07.2021 10:04 14,2 C 14,4 C 15,6 C 94 % 1015,3 hPa 0,0 l/m 0 min 0 min 154 W/m 12,9 km/h (3 Bft) 100,00 %
01.07.2021 10:06 14,2 C 14,4 C 15,6 C 94 % 1015,4 hPa 0,0 l/m 0 min 0 min 131 W/m 19,3 km/h (3 Bft) 98,28 %
01.07.2021 10:08 14,2 C 13,9 C 15,6 C 93 % 1015,3 hPa 0,0 l/m 0 min 0 min 127 W/m 12,9 km/h (3 Bft) 100,00 %
01.07.2021 10:10 14,2 C 13,9 C 15,6 C 93 % 1015,4 hPa 0,0 l/m 0 min 0 min 141 W/m 16,1 km/h (3 Bft) 100,00 %
01.07.2021 10:12 14,2 C 13,9 C 15,6 C 93 % 1015,3 hPa 0,0 l/m 0 min 0 min 152 W/m 19,3 km/h (3 Bft) 100,00 %
01.07.2021 10:14 14,2 C 13,9 C 15,6 C 93 % 1015,3 hPa 0,0 l/m 0 min 0 min 125 W/m 12,9 km/h (3 Bft) 94,29 %
01.07.2021 10:16 14,2 C 13,9 C 15,6 C 93 % 1015,3 hPa 0,0 l/m 0 min 0 min 114 W/m 16,1 km/h (3 Bft) 100,00 %
01.07.2021 10:18 14,2 C 13,9 C 15,6 C 93 % 1015,4 hPa 0,0 l/m 0 min 0 min 124 W/m 9,7 km/h (2 Bft) 100,00 %
01.07.2021 10:20 14,2 C 13,9 C 15,6 C 93 % 1015,4 hPa 0,0 l/m 0 min 0 min 139 W/m 12,9 km/h (3 Bft) 100,00 %
01.07.2021 10:22 14,2 C 13,9 C 15,6 C 93 % 1015,4 hPa 0,0 l/m 0 min 0 min 128 W/m 12,9 km/h (3 Bft) 100,00 %
01.07.2021 10:24 14,2 C 13,9 C 15,6 C 93 % 1015,4 hPa 0,0 l/m 0 min 0 min 111 W/m 19,3 km/h (3 Bft) 95,74 %
01.07.2021 10:26 14,2 C 13,9 C 15,6 C 93 % 1015,3 hPa 0,0 l/m 0 min 0 min 113 W/m 6,4 km/h (2 Bft) 85,11 %
01.07.2021 10:28 14,2 C 13,9 C 15,6 C 93 % 1015,4 hPa 0,0 l/m 0 min 0 min 111 W/m 12,9 km/h (3 Bft) 87,93 %
01.07.2021 10:30 14,2 C 13,9 C 15,6 C 93 % 1015,4 hPa 0,0 l/m 0 min 0 min 112 W/m 9,7 km/h (2 Bft) 94,44 %
01.07.2021 10:32 14,1 C 13,9 C 15,6 C 93 % 1015,5 hPa 0,0 l/m 0 min 0 min 119 W/m 12,9 km/h (3 Bft) 93,10 %
01.07.2021 10:34 14,1 C 13,9 C 15,6 C 93 % 1015,4 hPa 0,0 l/m 0 min 0 min 120 W/m 19,3 km/h (3 Bft) 97,87 %
01.07.2021 10:36 14,0 C 13,9 C 15,6 C 93 % 1015,4 hPa 0,0 l/m 0 min 0 min 120 W/m 12,9 km/h (3 Bft) 97,87 %
01.07.2021 10:38 14,0 C 13,9 C 15,6 C 93 % 1015,4 hPa 0,0 l/m 0 min 0 min 116 W/m 6,4 km/h (2 Bft) 97,67 %
01.07.2021 10:40 14,0 C 13,9 C 15,6 C 93 % 1015,4 hPa 0,0 l/m 0 min 0 min 121 W/m 16,1 km/h (3 Bft) 95,65 %
01.07.2021 10:42 14,0 C 13,9 C 15,6 C 93 % 1015,4 hPa 0,0 l/m 0 min 0 min 98 W/m 12,9 km/h (3 Bft) 95,74 %
01.07.2021 10:44 14,0 C 13,9 C 15,6 C 93 % 1015,4 hPa 0,0 l/m 0 min 0 min 98 W/m 16,1 km/h (3 Bft) 95,74 %
01.07.2021 10:46 14,1 C 13,9 C 15,6 C 93 % 1015,5 hPa 0,0 l/m 0 min 0 min 89 W/m 9,7 km/h (2 Bft) 93,62 %
01.07.2021 10:48 14,1 C 13,9 C 15,6 C 93 % 1015,5 hPa 0,0 l/m 0 min 0 min 89 W/m 12,9 km/h (3 Bft) 95,74 %
01.07.2021 10:50 14,1 C 13,9 C 15,6 C 93 % 1015,5 hPa 0,0 l/m 0 min 0 min 96 W/m 12,9 km/h (3 Bft) 95,65 %
01.07.2021 10:52 14,1 C 13,9 C 15,6 C 93 % 1015,6 hPa 0,0 l/m 0 min 0 min 113 W/m 6,4 km/h (2 Bft) 91,49 %
01.07.2021 10:54 14,1 C 13,9 C 15,6 C 93 % 1015,5 hPa 0,0 l/m 0 min 0 min 113 W/m 9,7 km/h (2 Bft) 93,62 %
01.07.2021 10:56 14,1 C 13,9 C 15,6 C 93 % 1015,5 hPa 0,0 l/m 0 min 0 min 102 W/m 12,9 km/h (3 Bft) 91,49 %
01.07.2021 10:58 14,0 C 13,9 C 15,6 C 93 % 1015,5 hPa 0,0 l/m 0 min 0 min 99 W/m 12,9 km/h (3 Bft) 92,86 %
01.07.2021 11:00 14,0 C 13,9 C 15,6 C 93 % 1015,5 hPa 0,0 l/m 0 min 0 min 103 W/m 16,1 km/h (3 Bft) 95,74 %
01.07.2021 11:02 14,0 C 13,9 C 15,6 C 94 % 1015,6 hPa 0,0 l/m 0 min 0 min 87 W/m 16,1 km/h (3 Bft) 98,00 %
01.07.2021 11:04 14,0 C 13,9 C 15,6 C 94 % 1015,6 hPa 0,0 l/m 0 min 0 min 80 W/m 6,4 km/h (2 Bft) 97,83 %
01.07.2021 11:06 14,0 C 13,9 C 15,6 C 94 % 1015,6 hPa 0,0 l/m 0 min 0 min 91 W/m 12,9 km/h (3 Bft) 95,74 %
01.07.2021 11:08 14,0 C 13,9 C 15,6 C 94 % 1015,6 hPa 0,0 l/m 0 min 0 min 95 W/m 12,9 km/h (3 Bft) 97,87 %
01.07.2021 11:10 14,0 C 13,9 C 15,6 C 94 % 1015,6 hPa 0,0 l/m 0 min 0 min 105 W/m 12,9 km/h (3 Bft) 93,62 %
01.07.2021 11:12 14,0 C 13,9 C 15,6 C 94 % 1015,6 hPa 0,0 l/m 0 min 0 min 127 W/m 16,1 km/h (3 Bft) 95,74 %
01.07.2021 11:14 14,0 C 13,9 C 15,6 C 94 % 1015,7 hPa 0,0 l/m 0 min 0 min 115 W/m 12,9 km/h (3 Bft) 93,62 %
01.07.2021 11:16 14,0 C 13,9 C 15,6 C 94 % 1015,6 hPa 0,0 l/m 0 min 0 min 132 W/m 12,9 km/h (3 Bft) 95,65 %
01.07.2021 11:18 14,0 C 13,9 C 15,6 C 94 % 1015,7 hPa 0,0 l/m 0 min 0 min 134 W/m 12,9 km/h (3 Bft) 95,74 %
01.07.2021 11:20 14,0 C 13,9 C 15,6 C 94 % 1015,7 hPa 0,0 l/m 0 min 0 min 151 W/m 16,1 km/h (3 Bft) 87,23 %
01.07.2021 11:22 14,0 C 14,4 C 15,6 C 94 % 1015,6 hPa 0,0 l/m 0 min 0 min 212 W/m 12,9 km/h (3 Bft) 95,74 %
01.07.2021 11:24 14,1 C 14,4 C 16,1 C 94 % 1015,7 hPa 0,0 l/m 0 min 0 min 250 W/m 9,7 km/h (2 Bft) 97,87 %
01.07.2021 11:26 14,2 C 15,0 C 16,1 C 94 % 1015,6 hPa 0,0 l/m 0 min 0 min 243 W/m 9,7 km/h (2 Bft) 97,87 %
01.07.2021 11:28 14,2 C 15,0 C 16,1 C 94 % 1015,7 hPa 0,0 l/m 0 min 0 min 202 W/m 9,7 km/h (2 Bft) 97,83 %
01.07.2021 11:30 14,4 C 15,0 C 16,1 C 94 % 1015,7 hPa 0,0 l/m 0 min 0 min 171 W/m 16,1 km/h (3 Bft) 97,87 %
01.07.2021 11:32 14,4 C 15,0 C 16,1 C 93 % 1015,6 hPa 0,0 l/m 0 min 0 min 157 W/m 12,9 km/h (3 Bft) 97,87 %
01.07.2021 11:34 14,5 C 15,0 C 16,1 C 93 % 1015,7 hPa 0,0 l/m 0 min 0 min 160 W/m 12,9 km/h (3 Bft) 100,00 %
01.07.2021 11:36 14,5 C 15,0 C 16,1 C 93 % 1015,6 hPa 0,0 l/m 0 min 0 min 146 W/m 12,9 km/h (3 Bft) 97,87 %
01.07.2021 11:38 14,5 C 15,0 C 16,1 C 93 % 1015,7 hPa 0,0 l/m 0 min 0 min 142 W/m 9,7 km/h (2 Bft) 97,87 %
01.07.2021 11:40 14,6 C 15,0 C 16,1 C 92 % 1015,7 hPa 0,0 l/m 0 min 0 min 143 W/m 12,9 km/h (3 Bft) 97,83 %
01.07.2021 11:42 14,6 C 15,0 C 16,1 C 92 % 1015,7 hPa 0,0 l/m 0 min 0 min 134 W/m 12,9 km/h (3 Bft) 100,00 %
01.07.2021 11:44 14,6 C 14,4 C 16,1 C 92 % 1015,7 hPa 0,0 l/m 0 min 0 min 130 W/m 12,9 km/h (3 Bft) 97,87 %
01.07.2021 11:46 14,7 C 14,4 C 16,1 C 91 % 1015,7 hPa 0,0 l/m 0 min 0 min 135 W/m 12,9 km/h (3 Bft) 100,00 %
01.07.2021 11:48 14,7 C 14,4 C 16,1 C 91 % 1015,7 hPa 0,0 l/m 0 min 0 min 138 W/m 12,9 km/h (3 Bft) 100,00 %
01.07.2021 11:50 14,7 C 14,4 C 16,1 C 91 % 1015,7 hPa 0,0 l/m 0 min 0 min 136 W/m 19,3 km/h (3 Bft) 97,87 %
01.07.2021 11:52 14,7 C 14,4 C 16,1 C 90 % 1015,7 hPa 0,0 l/m 0 min 0 min 135 W/m 16,1 km/h (3 Bft) 100,00 %
01.07.2021 11:54 14,7 C 14,4 C 16,1 C 90 % 1015,7 hPa 0,0 l/m 0 min 0 min 128 W/m 19,3 km/h (3 Bft) 100,00 %
01.07.2021 11:56 14,7 C 14,4 C 16,1 C 90 % 1015,7 hPa 0,0 l/m 0 min 0 min 124 W/m 12,9 km/h (3 Bft) 100,00 %
01.07.2021 11:58 14,7 C 14,4 C 16,1 C 90 % 1015,7 hPa 0,0 l/m 0 min 0 min 121 W/m 12,9 km/h (3 Bft) 100,00 %
01.07.2021 12:00 14,7 C 14,4 C 16,1 C 90 % 1015,8 hPa 0,0 l/m 0 min 0 min 121 W/m 16,1 km/h (3 Bft) 95,74 %
01.07.2021 12:02 14,8 C 14,4 C 16,1 C 90 % 1015,8 hPa 0,0 l/m 0 min 0 min 119 W/m 16,1 km/h (3 Bft) 100,00 %
01.07.2021 12:04 14,8 C 14,4 C 16,1 C 90 % 1015,7 hPa 0,0 l/m 0 min 0 min 113 W/m 9,7 km/h (2 Bft) 100,00 %
01.07.2021 12:08 14,8 C 14,4 C 16,1 C 90 % 1015,8 hPa 0,0 l/m 0 min 0 min 106 W/m 12,9 km/h (3 Bft) 97,87 %
01.07.2021 12:10 14,8 C 14,4 C 16,1 C 90 % 1015,9 hPa 0,0 l/m 0 min 0 min 109 W/m 16,1 km/h (3 Bft) 91,49 %
01.07.2021 12:12 14,8 C 14,4 C 16,1 C 90 % 1015,8 hPa 0,0 l/m 0 min 0 min 105 W/m 19,3 km/h (3 Bft) 87,23 %
01.07.2021 12:14 14,7 C 14,4 C 16,1 C 90 % 1015,9 hPa 0,0 l/m 0 min 0 min 116 W/m 12,9 km/h (3 Bft) 82,61 %
01.07.2021 12:16 14,8 C 14,4 C 16,1 C 90 % 1015,8 hPa 0,0 l/m 0 min 0 min 111 W/m 16,1 km/h (3 Bft) 95,74 %
01.07.2021 12:18 14,8 C 14,4 C 15,6 C 90 % 1015,8 hPa 0,0 l/m 0 min 0 min 106 W/m 16,1 km/h (3 Bft) 95,74 %
01.07.2021 12:20 14,7 C 14,4 C 16,1 C 90 % 1015,8 hPa 0,0 l/m 0 min 0 min 108 W/m 12,9 km/h (3 Bft) 91,49 %
01.07.2021 12:22 14,7 C 14,4 C 15,6 C 90 % 1015,8 hPa 0,0 l/m 0 min 0 min 114 W/m 16,1 km/h (3 Bft) 95,74 %
01.07.2021 12:24 14,7 C 14,4 C 15,6 C 90 % 1015,8 hPa 0,0 l/m 0 min 0 min 116 W/m 16,1 km/h (3 Bft) 85,11 %
01.07.2021 12:26 14,8 C 14,4 C 16,1 C 90 % 1015,8 hPa 0,0 l/m 0 min 0 min 125 W/m 16,1 km/h (3 Bft) 76,09 %
01.07.2021 12:28 14,8 C 14,4 C 16,1 C 90 % 1015,8 hPa 0,0 l/m 0 min 0 min 139 W/m 12,9 km/h (3 Bft) 74,47 %
01.07.2021 12:30 14,8 C 14,4 C 16,1 C 90 % 1015,8 hPa 0,0 l/m 0 min 0 min 136 W/m 16,1 km/h (3 Bft) 87,23 %
01.07.2021 12:32 14,8 C 14,4 C 16,1 C 90 % 1015,8 hPa 0,0 l/m 0 min 0 min 147 W/m 6,4 km/h (2 Bft) 87,23 %
01.07.2021 12:34 14,8 C 14,4 C 16,1 C 91 % 1015,8 hPa 0,0 l/m 0 min 0 min 146 W/m 22,5 km/h (4 Bft) 76,60 %
01.07.2021 12:36 14,9 C 14,4 C 16,1 C 91 % 1015,9 hPa 0,0 l/m 0 min 0 min 143 W/m 16,1 km/h (3 Bft) 84,78 %
01.07.2021 12:38 14,9 C 14,4 C 16,1 C 90 % 1016,0 hPa 0,0 l/m 0 min 0 min 154 W/m 12,9 km/h (3 Bft) 72,34 %
01.07.2021 12:40 14,9 C 14,4 C 16,1 C 90 % 1015,9 hPa 0,0 l/m 0 min 0 min 156 W/m 22,5 km/h (4 Bft) 87,23 %
01.07.2021 12:42 14,8 C 14,4 C 16,1 C 90 % 1015,8 hPa 0,0 l/m 0 min 0 min 141 W/m 12,9 km/h (3 Bft) 87,23 %
01.07.2021 12:44 14,9 C 14,4 C 16,1 C 90 % 1015,9 hPa 0,0 l/m 0 min 0 min 130 W/m 6,4 km/h (2 Bft) 95,74 %
01.07.2021 12:46 14,9 C 14,4 C 16,1 C 90 % 1015,9 hPa 0,0 l/m 0 min 0 min 121 W/m 19,3 km/h (3 Bft) 95,74 %
01.07.2021 12:48 14,8 C 14,4 C 15,6 C 90 % 1015,9 hPa 0,0 l/m 0 min 0 min 122 W/m 22,5 km/h (4 Bft) 87,23 %
01.07.2021 12:50 14,8 C 14,4 C 15,6 C 90 % 1015,9 hPa 0,0 l/m 0 min 0 min 128 W/m 22,5 km/h (4 Bft) 97,83 %
01.07.2021 12:52 14,8 C 14,4 C 15,6 C 90 % 1015,9 hPa 0,0 l/m 0 min 0 min 126 W/m 12,9 km/h (3 Bft) 89,36 %
01.07.2021 12:54 14,8 C 14,4 C 15,6 C 90 % 1015,9 hPa 0,0 l/m 0 min 0 min 115 W/m 12,9 km/h (3 Bft) 100,00 %
01.07.2021 12:56 14,9 C 14,4 C 15,6 C 90 % 1015,9 hPa 0,0 l/m 0 min 0 min 111 W/m 6,4 km/h (2 Bft) 100,00 %
01.07.2021 12:58 14,9 C 14,4 C 15,6 C 90 % 1015,9 hPa 0,0 l/m 0 min 0 min 126 W/m 19,3 km/h (3 Bft) 100,00 %
01.07.2021 13:00 14,9 C 14,4 C 15,6 C 90 % 1015,9 hPa 0,0 l/m 0 min 0 min 145 W/m 9,7 km/h (2 Bft) 100,00 %
01.07.2021 13:02 14,9 C 14,4 C 15,6 C 90 % 1015,9 hPa 0,0 l/m 0 min 0 min 140 W/m 12,9 km/h (3 Bft) 100,00 %
01.07.2021 13:04 14,9 C 15,0 C 15,6 C 90 % 1015,9 hPa 0,0 l/m 0 min 0 min 165 W/m 16,1 km/h (3 Bft) 100,00 %
01.07.2021 13:06 14,9 C 15,0 C 16,1 C 90 % 1015,9 hPa 0,0 l/m 0 min 0 min 186 W/m 12,9 km/h (3 Bft) 95,74 %
01.07.2021 13:08 14,9 C 15,0 C 16,1 C 90 % 1016,0 hPa 0,0 l/m 0 min 0 min 159 W/m 12,9 km/h (3 Bft) 97,83 %
01.07.2021 13:10 14,9 C 15,0 C 16,1 C 91 % 1015,9 hPa 0,0 l/m 0 min 0 min 180 W/m 9,7 km/h (2 Bft) 97,87 %
01.07.2021 13:12 15,0 C 15,0 C 16,1 C 90 % 1016,0 hPa 0,0 l/m 0 min 0 min 184 W/m 16,1 km/h (3 Bft) 97,87 %
01.07.2021 13:14 15,0 C 15,0 C 16,1 C 90 % 1015,9 hPa 0,0 l/m 0 min 0 min 154 W/m 19,3 km/h (3 Bft) 97,87 %
01.07.2021 13:16 15,0 C 14,4 C 15,6 C 90 % 1016,0 hPa 0,0 l/m 0 min 0 min 149 W/m 19,3 km/h (3 Bft) 95,74 %
01.07.2021 13:18 14,9 C 14,4 C 15,6 C 90 % 1016,0 hPa 0,0 l/m 0 min 0 min 151 W/m 25,7 km/h (4 Bft) 93,62 %
01.07.2021 13:20 14,9 C 14,4 C 15,6 C 90 % 1016,0 hPa 0,0 l/m 0 min 0 min 160 W/m 16,1 km/h (3 Bft) 95,65 %
01.07.2021 13:22 14,9 C 14,4 C 15,6 C 91 % 1016,0 hPa 0,0 l/m 0 min 0 min 184 W/m 12,9 km/h (3 Bft) 97,87 %
01.07.2021 13:24 14,9 C 14,4 C 15,6 C 91 % 1016,0 hPa 0,0 l/m 0 min 0 min 223 W/m 19,3 km/h (3 Bft) 95,74 %
01.07.2021 13:26 14,8 C 14,4 C 15,6 C 92 % 1016,1 hPa 0,0 l/m 0 min 0 min 216 W/m 12,9 km/h (3 Bft) 55,56 %
01.07.2021 13:28 14,8 C 14,4 C 15,0 C 92 % 1016,1 hPa 0,0 l/m 0 min 0 min 207 W/m 19,3 km/h (3 Bft) 93,62 %
01.07.2021 13:30 14,8 C 14,4 C 15,0 C 93 % 1016,1 hPa 0,0 l/m 0 min 0 min 203 W/m 12,9 km/h (3 Bft) 95,74 %
01.07.2021 13:32 14,8 C 14,4 C 15,0 C 93 % 1016,1 hPa 0,0 l/m 0 min 0 min 250 W/m 12,9 km/h (3 Bft) 93,48 %
01.07.2021 13:34 14,8 C 15,0 C 15,0 C 93 % 1016,1 hPa 0,0 l/m 0 min 0 min 261 W/m 12,9 km/h (3 Bft) 95,74 %
01.07.2021 13:36 14,8 C 14,4 C 15,0 C 93 % 1016,1 hPa 0,0 l/m 0 min 0 min 221 W/m 16,1 km/h (3 Bft) 91,49 %
01.07.2021 13:38 14,8 C 14,4 C 15,0 C 93 % 1016,1 hPa 0,0 l/m 0 min 0 min 198 W/m 16,1 km/h (3 Bft) 95,74 %
01.07.2021 13:40 14,7 C 14,4 C 15,0 C 94 % 1016,1 hPa 0,0 l/m 0 min 0 min 204 W/m 12,9 km/h (3 Bft) 89,36 %
01.07.2021 13:42 14,7 C 14,4 C 15,0 C 94 % 1016,2 hPa 0,0 l/m 0 min 0 min 196 W/m 16,1 km/h (3 Bft) 93,62 %
01.07.2021 13:44 14,6 C 14,4 C 15,0 C 94 % 1016,1 hPa 0,0 l/m 0 min 0 min 204 W/m 12,9 km/h (3 Bft) 93,48 %
01.07.2021 13:46 14,7 C 14,4 C 15,0 C 94 % 1016,1 hPa 0,0 l/m 0 min 0 min 202 W/m 6,4 km/h (2 Bft) 91,49 %
01.07.2021 13:48 14,7 C 15,0 C 15,0 C 94 % 1016,1 hPa 0,0 l/m 0 min 0 min 231 W/m 12,9 km/h (3 Bft) 91,49 %
01.07.2021 13:50 14,6 C 14,4 C 15,0 C 94 % 1016,2 hPa 0,0 l/m 0 min 0 min 247 W/m 16,1 km/h (3 Bft) 93,62 %
01.07.2021 13:52 14,6 C 14,4 C 15,6 C 94 % 1016,1 hPa 0,0 l/m 0 min 0 min 245 W/m 12,9 km/h (3 Bft) 93,62 %
01.07.2021 13:54 14,7 C 14,4 C 15,6 C 94 % 1016,1 hPa 0,0 l/m 0 min 0 min 249 W/m 29,0 km/h (5 Bft) 93,62 %
01.07.2021 13:56 14,7 C 14,4 C 15,6 C 94 % 1016,2 hPa 0,0 l/m 0 min 0 min 271 W/m 19,3 km/h (3 Bft) 91,30 %
01.07.2021 13:58 14,6 C 15,0 C 15,6 C 94 % 1016,1 hPa 0,0 l/m 0 min 0 min 303 W/m 16,1 km/h (3 Bft) 93,62 %
01.07.2021 14:00 14,8 C 15,0 C 15,6 C 94 % 1016,2 hPa 0,0 l/m 0 min 0 min 306 W/m 19,3 km/h (3 Bft) 93,62 %
01.07.2021 14:02 14,8 C 15,0 C 15,6 C 94 % 1016,2 hPa 0,0 l/m 0 min 0 min 289 W/m 12,9 km/h (3 Bft) 92,68 %
01.07.2021 14:04 14,9 C 15,6 C 15,6 C 95 % 1016,2 hPa 0,0 l/m 0 min 0 min 264 W/m 6,4 km/h (2 Bft) 85,11 %
01.07.2021 14:06 14,9 C 15,6 C 15,6 C 95 % 1016,2 hPa 0,0 l/m 0 min 0 min 233 W/m 12,9 km/h (3 Bft) 82,98 %
01.07.2021 14:08 14,9 C 15,0 C 15,6 C 94 % 1016,2 hPa 0,0 l/m 0 min 0 min 231 W/m 19,3 km/h (3 Bft) 91,49 %
01.07.2021 14:10 14,9 C 15,0 C 15,6 C 94 % 1016,3 hPa 0,0 l/m 0 min 0 min 230 W/m 22,5 km/h (4 Bft) 89,36 %
01.07.2021 14:12 14,8 C 15,0 C 15,6 C 94 % 1016,3 hPa 0,0 l/m 0 min 0 min 255 W/m 25,7 km/h (4 Bft) 91,30 %
01.07.2021 14:14 14,8 C 15,0 C 15,6 C 94 % 1016,2 hPa 0,0 l/m 0 min 0 min 282 W/m 12,9 km/h (3 Bft) 95,74 %
01.07.2021 14:16 14,9 C 15,0 C 15,6 C 94 % 1016,2 hPa 0,0 l/m 0 min 0 min 311 W/m 12,9 km/h (3 Bft) 95,74 %
01.07.2021 14:18 14,9 C 15,6 C 15,6 C 94 % 1016,3 hPa 0,0 l/m 0 min 0 min 303 W/m 19,3 km/h (3 Bft) 95,74 %
01.07.2021 14:20 15,0 C 15,0 C 15,6 C 94 % 1016,2 hPa 0,0 l/m 0 min 0 min 244 W/m 12,9 km/h (3 Bft) 95,74 %
01.07.2021 14:22 15,0 C 15,0 C 15,6 C 94 % 1016,3 hPa 0,0 l/m 0 min 0 min 212 W/m 16,1 km/h (3 Bft) 93,48 %
01.07.2021 14:24 15,0 C 15,0 C 15,6 C 94 % 1016,2 hPa 0,0 l/m 0 min 0 min 171 W/m 16,1 km/h (3 Bft) 95,74 %
01.07.2021 14:26 15,0 C 14,4 C 15,6 C 94 % 1016,3 hPa 0,0 l/m 0 min 0 min 125 W/m 16,1 km/h (3 Bft) 97,87 %
01.07.2021 14:28 15,0 C 15,0 C 15,6 C 94 % 1016,3 hPa 0,0 l/m 0 min 0 min 141 W/m 12,9 km/h (3 Bft) 95,74 %
01.07.2021 14:30 14,9 C 14,4 C 15,6 C 93 % 1016,4 hPa 0,0 l/m 0 min 0 min 141 W/m 16,1 km/h (3 Bft) 95,74 %
01.07.2021 14:32 14,8 C 14,4 C 15,6 C 93 % 1016,3 hPa 0,0 l/m 0 min 0 min 132 W/m 19,3 km/h (3 Bft) 91,49 %
01.07.2021 14:34 14,8 C 14,4 C 15,6 C 93 % 1016,3 hPa 0,0 l/m 0 min 0 min 136 W/m 19,3 km/h (3 Bft) 95,65 %
01.07.2021 14:36 14,8 C 14,4 C 15,6 C 93 % 1016,3 hPa 0,0 l/m 0 min 0 min 178 W/m 12,9 km/h (3 Bft) 97,87 %
01.07.2021 14:38 14,8 C 14,4 C 15,6 C 94 % 1016,4 hPa 0,0 l/m 0 min 0 min 201 W/m 16,1 km/h (3 Bft) 97,87 %
01.07.2021 14:40 14,8 C 15,0 C 15,6 C 94 % 1016,4 hPa 0,0 l/m 0 min 0 min 189 W/m 12,9 km/h (3 Bft) 97,87 %
01.07.2021 14:42 14,9 C 15,0 C 15,6 C 94 % 1016,4 hPa 0,0 l/m 0 min 0 min 174 W/m 9,7 km/h (2 Bft) 97,87 %
01.07.2021 14:44 14,9 C 15,0 C 15,6 C 94 % 1016,3 hPa 0,0 l/m 0 min 0 min 172 W/m 12,9 km/h (3 Bft) 95,74 %
01.07.2021 14:46 14,9 C 15,0 C 15,6 C 94 % 1016,4 hPa 0,0 l/m 0 min 0 min 188 W/m 16,1 km/h (3 Bft) 97,83 %
01.07.2021 14:48 14,9 C 15,0 C 15,6 C 94 % 1016,4 hPa 0,0 l/m 0 min 0 min 181 W/m 9,7 km/h (2 Bft) 97,87 %
01.07.2021 14:50 14,9 C 15,0 C 15,6 C 94 % 1016,4 hPa 0,0 l/m 0 min 0 min 153 W/m 16,1 km/h (3 Bft) 97,87 %
01.07.2021 14:52 14,9 C 15,0 C 15,6 C 94 % 1016,4 hPa 0,0 l/m 0 min 0 min 133 W/m 9,7 km/h (2 Bft) 93,62 %
01.07.2021 14:54 14,9 C 15,0 C 15,6 C 94 % 1016,4 hPa 0,0 l/m 0 min 0 min 137 W/m 9,7 km/h (2 Bft) 97,87 %
01.07.2021 14:56 15,0 C 15,0 C 15,6 C 94 % 1016,4 hPa 0,0 l/m 0 min 0 min 184 W/m 6,4 km/h (2 Bft) 97,87 %
01.07.2021 14:58 15,0 C 15,0 C 15,6 C 94 % 1016,4 hPa 0,0 l/m 0 min 0 min 203 W/m 6,4 km/h (2 Bft) 97,83 %
01.07.2021 15:00 15,0 C 15,0 C 15,6 C 94 % 1016,5 hPa 0,0 l/m 0 min 0 min 202 W/m 16,1 km/h (3 Bft) 97,87 %
01.07.2021 15:02 15,1 C 15,0 C 15,6 C 95 % 1016,5 hPa 0,0 l/m 0 min 0 min 201 W/m 6,4 km/h (2 Bft) 98,00 %
01.07.2021 15:04 15,1 C 15,0 C 15,6 C 95 % 1016,4 hPa 0,0 l/m 0 min 0 min 181 W/m 19,3 km/h (3 Bft) 93,62 %
01.07.2021 15:06 15,1 C 15,0 C 15,6 C 95 % 1016,5 hPa 0,0 l/m 0 min 0 min 177 W/m 12,9 km/h (3 Bft) 97,83 %
01.07.2021 15:08 15,0 C 15,0 C 15,6 C 95 % 1016,5 hPa 0,0 l/m 0 min 0 min 149 W/m 6,4 km/h (2 Bft) 95,74 %
01.07.2021 15:10 15,1 C 15,0 C 15,6 C 95 % 1016,4 hPa 0,0 l/m 0 min 0 min 160 W/m 6,4 km/h (2 Bft) 97,87 %
01.07.2021 15:12 15,0 C 15,0 C 15,6 C 95 % 1016,5 hPa 0,0 l/m 0 min 0 min 179 W/m 22,5 km/h (4 Bft) 97,87 %
01.07.2021 15:14 14,9 C 14,4 C 15,0 C 95 % 1016,5 hPa 0,0 l/m 0 min 0 min 175 W/m 16,1 km/h (3 Bft) 97,92 %
01.07.2021 15:16 14,9 C 14,4 C 15,0 C 95 % 1016,5 hPa 0,0 l/m 0 min 0 min 211 W/m 6,4 km/h (2 Bft) 97,87 %
01.07.2021 15:18 14,9 C 14,4 C 15,0 C 95 % 1016,5 hPa 0,0 l/m 0 min 0 min 198 W/m 16,1 km/h (3 Bft) 97,83 %
01.07.2021 15:20 14,8 C 14,4 C 15,0 C 95 % 1016,6 hPa 0,0 l/m 0 min 0 min 195 W/m 22,5 km/h (4 Bft) 97,87 %
01.07.2021 15:22 14,8 C 14,4 C 15,0 C 95 % 1016,6 hPa 0,0 l/m 0 min 0 min 188 W/m 6,4 km/h (2 Bft) 97,87 %
01.07.2021 15:24 14,8 C 14,4 C 15,0 C 95 % 1016,6 hPa 0,0 l/m 0 min 2 min 192 W/m 19,3 km/h (3 Bft) 97,87 %
01.07.2021 15:26 14,8 C 14,4 C 15,0 C 95 % 1016,6 hPa 0,0 l/m 0 min 0 min 212 W/m 19,3 km/h (3 Bft) 97,87 %
01.07.2021 15:28 14,7 C 14,4 C 15,0 C 95 % 1016,6 hPa 0,0 l/m 0 min 0 min 213 W/m 19,3 km/h (3 Bft) 97,83 %
01.07.2021 15:30 14,7 C 14,4 C 15,0 C 95 % 1016,6 hPa 0,0 l/m 0 min 0 min 181 W/m 12,9 km/h (3 Bft) 97,87 %
01.07.2021 15:32 14,7 C 14,4 C 15,0 C 95 % 1016,7 hPa 0,0 l/m 0 min 0 min 145 W/m 12,9 km/h (3 Bft) 97,87 %
01.07.2021 15:34 14,7 C 14,4 C 15,0 C 95 % 1016,7 hPa 0,0 l/m 0 min 0 min 134 W/m 19,3 km/h (3 Bft) 97,87 %
01.07.2021 15:36 14,7 C 14,4 C 15,0 C 95 % 1016,7 hPa 0,0 l/m 0 min 0 min 153 W/m 12,9 km/h (3 Bft) 95,74 %
01.07.2021 15:38 14,7 C 14,4 C 15,0 C 96 % 1016,7 hPa 0,0 l/m 0 min 0 min 163 W/m 12,9 km/h (3 Bft) 97,87 %
01.07.2021 15:40 14,7 C 14,4 C 15,0 C 96 % 1016,7 hPa 0,0 l/m 0 min 0 min 148 W/m 12,9 km/h (3 Bft) 97,96 %
01.07.2021 15:42 14,7 C 14,4 C 15,0 C 96 % 1016,7 hPa 0,0 l/m 0 min 0 min 154 W/m 16,1 km/h (3 Bft) 95,74 %
01.07.2021 15:44 14,7 C 14,4 C 15,0 C 96 % 1016,7 hPa 0,0 l/m 0 min 0 min 133 W/m 12,9 km/h (3 Bft) 97,87 %
01.07.2021 15:46 14,7 C 14,4 C 15,0 C 96 % 1016,8 hPa 0,0 l/m 0 min 0 min 121 W/m 16,1 km/h (3 Bft) 97,87 %
01.07.2021 15:48 14,7 C 14,4 C 15,0 C 96 % 1016,7 hPa 0,0 l/m 0 min 0 min 121 W/m 16,1 km/h (3 Bft) 97,87 %
01.07.2021 15:50 14,6 C 14,4 C 15,0 C 96 % 1016,7 hPa 0,0 l/m 0 min 0 min 143 W/m 9,7 km/h (2 Bft) 97,87 %
01.07.2021 15:52 14,6 C 14,4 C 15,0 C 95 % 1016,7 hPa 0,0 l/m 0 min 0 min 160 W/m 19,3 km/h (3 Bft) 97,83 %
01.07.2021 15:54 14,6 C 14,4 C 15,0 C 95 % 1016,7 hPa 0,0 l/m 0 min 0 min 148 W/m 16,1 km/h (3 Bft) 97,87 %
01.07.2021 15:56 14,6 C 14,4 C 15,0 C 95 % 1016,6 hPa 0,0 l/m 0 min 0 min 132 W/m 12,9 km/h (3 Bft) 97,87 %
01.07.2021 15:58 14,5 C 14,4 C 15,0 C 95 % 1016,7 hPa 0,0 l/m 0 min 0 min 126 W/m 19,3 km/h (3 Bft) 97,87 %
01.07.2021 16:00 14,5 C 14,4 C 15,0 C 95 % 1016,7 hPa 0,0 l/m 0 min 0 min 141 W/m 12,9 km/h (3 Bft) 97,87 %
01.07.2021 16:02 14,5 C 14,4 C 15,0 C 95 % 1016,7 hPa 0,0 l/m 0 min 0 min 140 W/m 6,4 km/h (2 Bft) 95,74 %
01.07.2021 16:04 14,6 C 14,4 C 15,0 C 96 % 1016,7 hPa 0,0 l/m 0 min 0 min 160 W/m 12,9 km/h (3 Bft) 100,00 %
01.07.2021 16:06 14,6 C 14,4 C 15,0 C 96 % 1016,7 hPa 0,0 l/m 0 min 0 min 166 W/m 16,1 km/h (3 Bft) 97,87 %
01.07.2021 16:08 14,6 C 14,4 C 15,0 C 96 % 1016,7 hPa 0,0 l/m 0 min 2 min 161 W/m 12,9 km/h (3 Bft) 97,87 %
01.07.2021 16:10 14,6 C 14,4 C 15,0 C 96 % 1016,7 hPa 0,0 l/m 0 min 2 min 143 W/m 25,7 km/h (4 Bft) 97,62 %
01.07.2021 16:12 14,5 C 14,4 C 15,0 C 96 % 1016,7 hPa 0,0 l/m 0 min 0 min 149 W/m 12,9 km/h (3 Bft) 97,87 %
01.07.2021 16:14 14,5 C 14,4 C 15,0 C 96 % 1016,6 hPa 0,0 l/m 0 min 0 min 153 W/m 19,3 km/h (3 Bft) 97,87 %
01.07.2021 16:16 14,5 C 14,4 C 15,0 C 96 % 1016,7 hPa 0,0 l/m 0 min 0 min 133 W/m 12,9 km/h (3 Bft) 97,83 %
01.07.2021 16:18 14,5 C 14,4 C 15,0 C 96 % 1016,8 hPa 0,0 l/m 0 min 0 min 143 W/m 12,9 km/h (3 Bft) 97,87 %
01.07.2021 16:20 14,5 C 14,4 C 15,0 C 96 % 1016,8 hPa 0,0 l/m 0 min 0 min 139 W/m 12,9 km/h (3 Bft) 95,74 %
01.07.2021 16:22 14,5 C 14,4 C 15,0 C 96 % 1016,8 hPa 0,0 l/m 0 min 0 min 139 W/m 12,9 km/h (3 Bft) 97,87 %
01.07.2021 16:24 14,5 C 14,4 C 15,0 C 96 % 1016,8 hPa 0,0 l/m 0 min 0 min 147 W/m 6,4 km/h (2 Bft) 97,87 %
01.07.2021 16:26 14,5 C 14,4 C 15,0 C 96 % 1016,8 hPa 0,0 l/m 0 min 0 min 152 W/m 19,3 km/h (3 Bft) 95,74 %
01.07.2021 16:28 14,5 C 14,4 C 15,0 C 96 % 1016,8 hPa 0,0 l/m 0 min 0 min 138 W/m 9,7 km/h (2 Bft) 97,83 %
01.07.2021 16:30 14,5 C 14,4 C 15,0 C 96 % 1016,8 hPa 0,0 l/m 0 min 0 min 137 W/m 12,9 km/h (3 Bft) 97,87 %
01.07.2021 16:32 14,5 C 14,4 C 15,0 C 96 % 1016,9 hPa 0,0 l/m 0 min 0 min 137 W/m 12,9 km/h (3 Bft) 95,74 %
01.07.2021 16:34 14,4 C 13,9 C 15,0 C 96 % 1016,8 hPa 0,0 l/m 0 min 0 min 133 W/m 12,9 km/h (3 Bft) 97,87 %
01.07.2021 16:36 14,4 C 13,9 C 14,5 C 96 % 1016,8 hPa 0,0 l/m 0 min 0 min 121 W/m 16,1 km/h (3 Bft) 97,87 %
01.07.2021 16:38 14,4 C 13,9 C 14,5 C 96 % 1016,8 hPa 0,0 l/m 0 min 0 min 111 W/m 12,9 km/h (3 Bft) 97,87 %
01.07.2021 16:40 14,4 C 13,9 C 15,0 C 96 % 1016,8 hPa 0,0 l/m 0 min 0 min 99 W/m 12,9 km/h (3 Bft) 96,00 %
01.07.2021 16:42 14,4 C 13,9 C 15,0 C 96 % 1016,8 hPa 0,0 l/m 0 min 0 min 101 W/m 9,7 km/h (2 Bft) 91,49 %
01.07.2021 16:44 14,4 C 13,9 C 14,5 C 96 % 1016,8 hPa 0,0 l/m 0 min 0 min 92 W/m 16,1 km/h (3 Bft) 97,87 %
01.07.2021 16:46 14,4 C 13,9 C 14,5 C 96 % 1016,8 hPa 0,0 l/m 0 min 0 min 87 W/m 9,7 km/h (2 Bft) 95,74 %
01.07.2021 16:48 14,3 C 13,9 C 14,5 C 96 % 1016,8 hPa 0,0 l/m 0 min 2 min 94 W/m 19,3 km/h (3 Bft) 97,87 %
01.07.2021 16:50 14,3 C 13,9 C 14,5 C 96 % 1016,8 hPa 0,0 l/m 0 min 2 min 104 W/m 12,9 km/h (3 Bft) 95,65 %
01.07.2021 16:52 14,3 C 13,9 C 14,5 C 96 % 1016,8 hPa 0,0 l/m 0 min 0 min 96 W/m 6,4 km/h (2 Bft) 93,62 %
01.07.2021 16:54 14,4 C 13,9 C 15,0 C 96 % 1016,8 hPa 0,0 l/m 0 min 2 min 96 W/m 12,9 km/h (3 Bft) 91,49 %
01.07.2021 16:56 14,4 C 13,9 C 15,0 C 96 % 1016,8 hPa 0,0 l/m 0 min 2 min 89 W/m 9,7 km/h (2 Bft) 93,62 %
01.07.2021 16:58 14,4 C 13,9 C 15,0 C 96 % 1016,8 hPa 0,0 l/m 0 min 0 min 85 W/m 6,4 km/h (2 Bft) 97,87 %
01.07.2021 17:00 14,4 C 13,9 C 15,0 C 96 % 1016,8 hPa 0,0 l/m 0 min 0 min 98 W/m 12,9 km/h (3 Bft) 97,87 %
01.07.2021 17:02 14,4 C 13,9 C 14,5 C 96 % 1016,8 hPa 0,0 l/m 0 min 0 min 107 W/m 12,9 km/h (3 Bft) 95,65 %
01.07.2021 17:04 14,3 C 13,9 C 14,5 C 96 % 1016,9 hPa 0,0 l/m 0 min 0 min 113 W/m 22,5 km/h (4 Bft) 97,87 %
01.07.2021 17:06 14,2 C 13,9 C 15,0 C 96 % 1016,9 hPa 0,0 l/m 0 min 0 min 120 W/m 12,9 km/h (3 Bft) 97,44 %
01.07.2021 17:08 14,2 C 13,9 C 15,0 C 96 % 1016,8 hPa 0,0 l/m 0 min 0 min 125 W/m 12,9 km/h (3 Bft) 97,87 %
01.07.2021 17:10 14,3 C 13,9 C 15,0 C 96 % 1016,9 hPa 0,0 l/m 0 min 0 min 115 W/m 12,9 km/h (3 Bft) 95,74 %
01.07.2021 17:12 14,3 C 14,4 C 15,0 C 96 % 1016,9 hPa 0,0 l/m 0 min 0 min 114 W/m 12,9 km/h (3 Bft) 97,87 %
01.07.2021 17:14 14,3 C 14,4 C 15,0 C 96 % 1016,9 hPa 0,0 l/m 0 min 0 min 122 W/m 12,9 km/h (3 Bft) 97,87 %
01.07.2021 17:16 14,3 C 13,9 C 15,0 C 96 % 1016,9 hPa 0,0 l/m 0 min 0 min 120 W/m 9,7 km/h (2 Bft) 97,87 %
01.07.2021 17:18 14,3 C 13,9 C 15,0 C 96 % 1016,9 hPa 0,0 l/m 0 min 0 min 111 W/m 16,1 km/h (3 Bft) 97,83 %
01.07.2021 17:20 14,3 C 13,9 C 15,0 C 96 % 1016,9 hPa 0,0 l/m 0 min 0 min 102 W/m 12,9 km/h (3 Bft) 98,18 %
01.07.2021 17:22 14,3 C 13,9 C 15,0 C 96 % 1016,9 hPa 0,0 l/m 0 min 0 min 92 W/m 6,4 km/h (2 Bft) 97,87 %
01.07.2021 17:24 14,3 C 13,9 C 15,0 C 96 % 1016,9 hPa 0,0 l/m 0 min 0 min 93 W/m 6,4 km/h (2 Bft) 93,48 %
01.07.2021 17:26 14,3 C 13,9 C 15,0 C 96 % 1016,9 hPa 0,0 l/m 0 min 0 min 91 W/m 6,4 km/h (2 Bft) 97,87 %
01.07.2021 17:28 14,3 C 13,9 C 15,0 C 96 % 1016,9 hPa 0,0 l/m 0 min 0 min 88 W/m 16,1 km/h (3 Bft) 97,87 %
01.07.2021 17:30 14,3 C 13,9 C 15,0 C 96 % 1016,9 hPa 0,0 l/m 0 min 0 min 83 W/m 12,9 km/h (3 Bft) 97,87 %
01.07.2021 17:32 14,3 C 13,9 C 15,0 C 96 % 1016,8 hPa 0,0 l/m 0 min 0 min 87 W/m 16,1 km/h (3 Bft) 97,87 %
01.07.2021 17:34 14,3 C 13,9 C 15,0 C 96 % 1016,9 hPa 0,0 l/m 0 min 0 min 89 W/m 16,1 km/h (3 Bft) 97,87 %
01.07.2021 17:36 14,2 C 13,9 C 15,0 C 96 % 1016,9 hPa 0,0 l/m 0 min 0 min 85 W/m 19,3 km/h (3 Bft) 95,65 %
01.07.2021 17:38 14,2 C 13,9 C 15,0 C 96 % 1016,9 hPa 0,0 l/m 0 min 0 min 84 W/m 16,1 km/h (3 Bft) 97,87 %
01.07.2021 17:40 14,2 C 13,9 C 15,0 C 96 % 1017,0 hPa 0,0 l/m 0 min 0 min 80 W/m 9,7 km/h (2 Bft) 97,87 %
01.07.2021 17:42 14,2 C 13,9 C 15,0 C 96 % 1016,9 hPa 0,0 l/m 0 min 0 min 84 W/m 6,4 km/h (2 Bft) 97,87 %
01.07.2021 17:44 14,2 C 13,9 C 15,0 C 96 % 1016,9 hPa 0,0 l/m 0 min 0 min 80 W/m 6,4 km/h (2 Bft) 97,87 %
01.07.2021 17:46 14,2 C 13,9 C 15,0 C 96 % 1016,9 hPa 0,0 l/m 0 min 0 min 79 W/m 19,3 km/h (3 Bft) 100,00 %
01.07.2021 17:48 14,2 C 13,9 C 15,0 C 96 % 1016,9 hPa 0,0 l/m 0 min 0 min 74 W/m 12,9 km/h (3 Bft) 100,00 %
01.07.2021 17:50 14,2 C 13,9 C 15,0 C 96 % 1016,9 hPa 0,0 l/m 0 min 0 min 76 W/m 6,4 km/h (2 Bft) 100,00 %
01.07.2021 17:52 14,2 C 13,9 C 15,0 C 96 % 1017,0 hPa 0,0 l/m 0 min 0 min 73 W/m 12,9 km/h (3 Bft) 100,00 %
01.07.2021 17:54 14,2 C 13,9 C 15,0 C 96 % 1017,0 hPa 0,0 l/m 0 min 0 min 72 W/m 6,4 km/h (2 Bft) 100,00 %
01.07.2021 17:56 14,2 C 13,9 C 15,0 C 96 % 1017,0 hPa 0,0 l/m 0 min 0 min 73 W/m 19,3 km/h (3 Bft) 100,00 %
01.07.2021 17:58 14,2 C 13,9 C 15,0 C 96 % 1017,0 hPa 0,0 l/m 0 min 0 min 73 W/m 16,1 km/h (3 Bft) 100,00 %
01.07.2021 18:00 14,2 C 13,9 C 15,0 C 96 % 1017,0 hPa 0,0 l/m 0 min 0 min 65 W/m 6,4 km/h (2 Bft) 100,00 %
01.07.2021 18:02 14,2 C 13,9 C 15,0 C 96 % 1017,0 hPa 0,0 l/m 0 min 0 min 66 W/m 19,3 km/h (3 Bft) 100,00 %
01.07.2021 18:04 14,2 C 13,9 C 15,0 C 96 % 1017,0 hPa 0,0 l/m 0 min 0 min 71 W/m 9,7 km/h (2 Bft) 100,00 %
01.07.2021 18:08 14,2 C 13,9 C 14,5 C 96 % 1017,1 hPa 0,0 l/m 0 min 4 min 81 W/m 16,1 km/h (3 Bft) 99,01 %
01.07.2021 18:10 14,2 C 13,9 C 14,5 C 96 % 1017,1 hPa 0,0 l/m 0 min 2 min 81 W/m 16,1 km/h (3 Bft) 100,00 %
01.07.2021 18:12 14,2 C 13,9 C 14,5 C 97 % 1017,0 hPa 0,0 l/m 0 min 2 min 73 W/m 16,1 km/h (3 Bft) 100,00 %
01.07.2021 18:14 14,2 C 13,9 C 14,5 C 97 % 1017,0 hPa 0,0 l/m 0 min 2 min 77 W/m 6,4 km/h (2 Bft) 100,00 %
01.07.2021 18:16 14,2 C 13,9 C 14,5 C 97 % 1017,1 hPa 0,0 l/m 0 min 2 min 75 W/m 9,7 km/h (2 Bft) 100,00 %
01.07.2021 18:18 14,2 C 13,9 C 14,5 C 97 % 1017,0 hPa 0,0 l/m 0 min 2 min 77 W/m 6,4 km/h (2 Bft) 100,00 %
01.07.2021 18:20 14,2 C 13,9 C 14,5 C 97 % 1017,0 hPa 0,0 l/m 0 min 2 min 76 W/m 12,9 km/h (3 Bft) 100,00 %
01.07.2021 18:22 14,2 C 13,9 C 14,5 C 97 % 1017,0 hPa 0,0 l/m 0 min 0 min 78 W/m 16,1 km/h (3 Bft) 100,00 %
01.07.2021 18:24 14,2 C 13,9 C 14,5 C 97 % 1017,1 hPa 0,0 l/m 0 min 0 min 70 W/m 16,1 km/h (3 Bft) 100,00 %
01.07.2021 18:26 14,2 C 13,9 C 14,5 C 97 % 1017,1 hPa 0,0 l/m 0 min 0 min 69 W/m 12,9 km/h (3 Bft) 100,00 %
01.07.2021 18:28 14,1 C 13,9 C 14,5 C 97 % 1017,0 hPa 0,0 l/m 0 min 0 min 66 W/m 12,9 km/h (3 Bft) 97,87 %
01.07.2021 18:30 14,1 C 13,9 C 14,5 C 97 % 1017,1 hPa 0,0 l/m 0 min 0 min 65 W/m 12,9 km/h (3 Bft) 100,00 %
01.07.2021 18:32 14,1 C 13,3 C 14,5 C 97 % 1017,0 hPa 0,0 l/m 0 min 0 min 66 W/m 9,7 km/h (2 Bft) 100,00 %
01.07.2021 18:34 14,1 C 13,9 C 14,5 C 97 % 1017,0 hPa 0,0 l/m 0 min 0 min 65 W/m 12,9 km/h (3 Bft) 97,87 %
01.07.2021 18:36 14,1 C 13,9 C 14,5 C 97 % 1017,1 hPa 0,0 l/m 0 min 0 min 65 W/m 6,4 km/h (2 Bft) 100,00 %
01.07.2021 18:38 14,1 C 13,9 C 14,5 C 97 % 1016,9 hPa 0,0 l/m 0 min 0 min 69 W/m 16,1 km/h (3 Bft) 100,00 %
01.07.2021 18:40 14,0 C 13,9 C 14,5 C 97 % 1017,1 hPa 0,0 l/m 0 min 0 min 69 W/m 12,9 km/h (3 Bft) 100,00 %
01.07.2021 18:42 14,0 C 13,9 C 14,5 C 97 % 1017,0 hPa 0,0 l/m 0 min 0 min 64 W/m 12,9 km/h (3 Bft) 100,00 %
01.07.2021 18:44 14,1 C 13,9 C 14,5 C 97 % 1017,0 hPa 0,0 l/m 0 min 0 min 60 W/m 12,9 km/h (3 Bft) 100,00 %
01.07.2021 18:46 14,1 C 13,9 C 14,5 C 97 % 1016,9 hPa 0,0 l/m 0 min 0 min 54 W/m 22,5 km/h (4 Bft) 100,00 %
01.07.2021 18:48 14,1 C 13,9 C 14,5 C 97 % 1016,9 hPa 0,0 l/m 0 min 0 min 54 W/m 16,1 km/h (3 Bft) 100,00 %
01.07.2021 18:50 14,1 C 13,9 C 14,5 C 97 % 1017,0 hPa 0,0 l/m 0 min 0 min 51 W/m 9,7 km/h (2 Bft) 100,00 %
01.07.2021 18:52 14,1 C 13,9 C 14,5 C 97 % 1017,0 hPa 0,0 l/m 0 min 0 min 52 W/m 6,4 km/h (2 Bft) 100,00 %
01.07.2021 18:54 14,1 C 13,9 C 15,0 C 97 % 1017,0 hPa 0,0 l/m 0 min 0 min 52 W/m 6,4 km/h (2 Bft) 100,00 %
01.07.2021 18:56 14,1 C 13,9 C 15,0 C 97 % 1017,0 hPa 0,0 l/m 0 min 0 min 50 W/m 6,4 km/h (2 Bft) 100,00 %
01.07.2021 18:58 14,1 C 13,9 C 15,0 C 97 % 1017,1 hPa 0,0 l/m 0 min 0 min 53 W/m 9,7 km/h (2 Bft) 97,22 %
01.07.2021 19:00 14,1 C 13,9 C 15,0 C 97 % 1017,0 hPa 0,0 l/m 0 min 0 min 54 W/m 16,1 km/h (3 Bft) 97,83 %
01.07.2021 19:02 14,2 C 13,9 C 15,0 C 97 % 1017,1 hPa 0,0 l/m 0 min 0 min 47 W/m 6,4 km/h (2 Bft) 96,00 %
01.07.2021 19:04 14,1 C 13,9 C 15,0 C 97 % 1017,1 hPa 0,0 l/m 0 min 0 min 45 W/m 6,4 km/h (2 Bft) 98,04 %
01.07.2021 19:06 14,2 C 13,9 C 15,0 C 97 % 1017,1 hPa 0,0 l/m 0 min 0 min 49 W/m 9,7 km/h (2 Bft) 97,87 %
01.07.2021 19:08 14,2 C 13,9 C 15,0 C 97 % 1017,1 hPa 0,0 l/m 0 min 0 min 49 W/m 6,4 km/h (2 Bft) 95,83 %
01.07.2021 19:10 14,2 C 13,9 C 15,0 C 97 % 1017,1 hPa 0,0 l/m 0 min 0 min 46 W/m 6,4 km/h (2 Bft) 86,96 %
01.07.2021 19:12 14,1 C 13,9 C 15,0 C 97 % 1017,0 hPa 0,0 l/m 0 min 0 min 40 W/m 12,9 km/h (3 Bft) 95,74 %
01.07.2021 19:14 14,1 C 13,9 C 15,0 C 97 % 1017,1 hPa 0,0 l/m 0 min 0 min 39 W/m 12,9 km/h (3 Bft) 97,87 %
01.07.2021 19:16 14,1 C 13,9 C 15,0 C 97 % 1017,1 hPa 0,0 l/m 0 min 0 min 38 W/m 6,4 km/h (2 Bft) 97,87 %
01.07.2021 19:18 14,1 C 13,9 C 15,0 C 97 % 1017,1 hPa 0,0 l/m 0 min 0 min 37 W/m 6,4 km/h (2 Bft) 95,74 %
01.07.2021 19:20 14,2 C 13,9 C 15,0 C 97 % 1017,1 hPa 0,0 l/m 0 min 2 min 39 W/m 12,9 km/h (3 Bft) 97,87 %
01.07.2021 19:22 14,2 C 13,9 C 15,0 C 97 % 1017,1 hPa 0,0 l/m 0 min 2 min 43 W/m 6,4 km/h (2 Bft) 95,65 %
01.07.2021 19:24 14,1 C 13,9 C 14,5 C 97 % 1017,1 hPa 0,0 l/m 0 min 2 min 47 W/m 6,4 km/h (2 Bft) 97,87 %
01.07.2021 19:26 14,1 C 13,9 C 15,0 C 97 % 1017,1 hPa 0,0 l/m 0 min 2 min 51 W/m 9,7 km/h (2 Bft) 97,87 %
01.07.2021 19:28 14,1 C 13,9 C 15,0 C 97 % 1017,0 hPa 0,0 l/m 0 min 2 min 57 W/m 3,2 km/h (1 Bft) 95,74 %
01.07.2021 19:30 14,1 C 13,9 C 15,0 C 97 % 1017,0 hPa 0,0 l/m 0 min 2 min 65 W/m 6,4 km/h (2 Bft) 97,87 %
01.07.2021 19:32 14,2 C 13,9 C 15,0 C 97 % 1017,1 hPa 0,0 l/m 0 min 2 min 69 W/m 9,7 km/h (2 Bft) 97,83 %
01.07.2021 19:34 14,2 C 13,9 C 15,0 C 97 % 1017,0 hPa 0,0 l/m 0 min 0 min 71 W/m 6,4 km/h (2 Bft) 97,87 %
01.07.2021 19:36 14,2 C 13,9 C 15,0 C 97 % 1017,0 hPa 0,0 l/m 0 min 0 min 73 W/m 19,3 km/h (3 Bft) 93,62 %
01.07.2021 19:38 14,2 C 13,9 C 15,0 C 97 % 1017,0 hPa 0,0 l/m 0 min 2 min 71 W/m 6,4 km/h (2 Bft) 95,74 %
01.07.2021 19:40 14,2 C 13,9 C 15,0 C 97 % 1016,9 hPa 0,0 l/m 0 min 2 min 66 W/m 3,2 km/h (1 Bft) 95,74 %
01.07.2021 19:42 14,2 C 13,9 C 15,0 C 97 % 1016,9 hPa 0,0 l/m 0 min 0 min 62 W/m 6,4 km/h (2 Bft) 97,87 %
01.07.2021 19:44 14,2 C 13,9 C 15,0 C 97 % 1017,1 hPa 0,0 l/m 0 min 0 min 62 W/m 12,9 km/h (3 Bft) 95,65 %
01.07.2021 19:46 14,2 C 13,9 C 15,0 C 97 % 1017,0 hPa 0,0 l/m 0 min 0 min 59 W/m 9,7 km/h (2 Bft) 93,62 %
01.07.2021 19:48 14,2 C 13,9 C 15,0 C 97 % 1017,1 hPa 0,0 l/m 0 min 0 min 53 W/m 9,7 km/h (2 Bft) 100,00 %
01.07.2021 19:50 14,2 C 13,9 C 15,0 C 97 % 1017,1 hPa 0,0 l/m 0 min 0 min 51 W/m 6,4 km/h (2 Bft) 100,00 %
01.07.2021 19:52 14,2 C 13,9 C 15,0 C 97 % 1017,1 hPa 0,0 l/m 0 min 0 min 51 W/m 6,4 km/h (2 Bft) 93,62 %
01.07.2021 19:54 14,2 C 13,9 C 15,0 C 97 % 1017,1 hPa 0,0 l/m 0 min 0 min 47 W/m 9,7 km/h (2 Bft) 97,87 %
01.07.2021 19:56 14,2 C 13,9 C 15,0 C 97 % 1017,0 hPa 0,0 l/m 0 min 0 min 44 W/m 9,7 km/h (2 Bft) 97,83 %
01.07.2021 19:58 14,2 C 13,9 C 15,0 C 97 % 1017,1 hPa 0,0 l/m 0 min 0 min 41 W/m 6,4 km/h (2 Bft) 97,87 %
01.07.2021 20:00 14,2 C 13,9 C 15,0 C 97 % 1017,1 hPa 0,0 l/m 0 min 0 min 40 W/m 6,4 km/h (2 Bft) 97,87 %
01.07.2021 20:02 14,2 C 13,9 C 15,0 C 97 % 1017,1 hPa 0,0 l/m 0 min 0 min 39 W/m 6,4 km/h (2 Bft) 95,74 %
01.07.2021 20:04 14,2 C 13,9 C 15,0 C 97 % 1017,1 hPa 0,0 l/m 0 min 0 min 42 W/m 6,4 km/h (2 Bft) 97,56 %
01.07.2021 20:06 14,2 C 13,9 C 15,0 C 97 % 1017,1 hPa 0,0 l/m 0 min 0 min 44 W/m 12,9 km/h (3 Bft) 95,74 %
01.07.2021 20:08 14,2 C 13,9 C 15,0 C 97 % 1017,1 hPa 0,0 l/m 0 min 2 min 44 W/m 3,2 km/h (1 Bft) 95,74 %
01.07.2021 20:10 14,2 C 13,9 C 15,0 C 97 % 1017,1 hPa 0,2 l/m 0 min 2 min 41 W/m 6,4 km/h (2 Bft) 97,73 %
01.07.2021 20:12 14,2 C 13,9 C 15,0 C 97 % 1017,1 hPa 0,0 l/m 0 min 2 min 39 W/m 6,4 km/h (2 Bft) 97,87 %
01.07.2021 20:14 14,2 C 13,9 C 15,0 C 97 % 1017,1 hPa 0,0 l/m 0 min 2 min 39 W/m 6,4 km/h (2 Bft) 97,87 %
01.07.2021 20:16 14,2 C 13,9 C 15,0 C 97 % 1017,1 hPa 0,0 l/m 0 min 2 min 40 W/m 6,4 km/h (2 Bft) 95,74 %
01.07.2021 20:18 14,2 C 13,9 C 15,0 C 97 % 1017,1 hPa 0,0 l/m 0 min 2 min 42 W/m 9,7 km/h (2 Bft) 95,74 %
01.07.2021 20:20 14,2 C 13,9 C 15,0 C 97 % 1017,1 hPa 0,0 l/m 0 min 2 min 43 W/m 9,7 km/h (2 Bft) 97,87 %
01.07.2021 20:22 14,2 C 13,3 C 14,5 C 97 % 1017,1 hPa 0,0 l/m 0 min 2 min 41 W/m 6,4 km/h (2 Bft) 97,83 %
01.07.2021 20:24 14,2 C 13,3 C 14,5 C 97 % 1017,1 hPa 0,0 l/m 0 min 2 min 37 W/m 12,9 km/h (3 Bft) 97,96 %
01.07.2021 20:26 14,2 C 13,3 C 14,5 C 97 % 1017,1 hPa 0,0 l/m 0 min 0 min 37 W/m 12,9 km/h (3 Bft) 97,87 %
01.07.2021 20:28 14,2 C 13,3 C 14,5 C 97 % 1017,1 hPa 0,0 l/m 0 min 0 min 37 W/m 3,2 km/h (1 Bft) 97,87 %
01.07.2021 20:30 14,2 C 13,3 C 15,0 C 97 % 1017,1 hPa 0,0 l/m 0 min 2 min 34 W/m 6,4 km/h (2 Bft) 97,87 %
01.07.2021 20:32 14,2 C 13,3 C 15,0 C 97 % 1017,1 hPa 0,0 l/m 0 min 0 min 32 W/m 6,4 km/h (2 Bft) 95,74 %
01.07.2021 20:34 14,2 C 13,3 C 14,5 C 97 % 1017,1 hPa 0,0 l/m 0 min 2 min 30 W/m 3,2 km/h (1 Bft) 97,83 %
01.07.2021 20:36 14,2 C 13,3 C 14,5 C 97 % 1017,1 hPa 0,0 l/m 0 min 2 min 27 W/m 6,4 km/h (2 Bft) 97,87 %
01.07.2021 20:38 14,2 C 13,3 C 14,5 C 97 % 1017,1 hPa 0,0 l/m 0 min 2 min 25 W/m 6,4 km/h (2 Bft) 97,87 %
01.07.2021 20:40 14,2 C 13,3 C 14,5 C 97 % 1017,1 hPa 0,0 l/m 0 min 2 min 25 W/m 6,4 km/h (2 Bft) 97,87 %
01.07.2021 20:42 14,2 C 13,3 C 15,0 C 97 % 1017,1 hPa 0,0 l/m 0 min 2 min 25 W/m 6,4 km/h (2 Bft) 97,87 %
01.07.2021 20:44 14,2 C 13,9 C 15,0 C 97 % 1017,1 hPa 0,0 l/m 0 min 0 min 25 W/m 3,2 km/h (1 Bft) 100,00 %
01.07.2021 20:46 14,2 C 13,3 C 14,5 C 97 % 1017,0 hPa 0,0 l/m 0 min 0 min 22 W/m 6,4 km/h (2 Bft) 100,00 %
01.07.2021 20:48 14,2 C 13,3 C 15,0 C 97 % 1017,1 hPa 0,0 l/m 0 min 0 min 21 W/m 3,2 km/h (1 Bft) 100,00 %
01.07.2021 20:50 14,2 C 13,3 C 15,0 C 97 % 1017,1 hPa 0,2 l/m 0 min 0 min 21 W/m 6,4 km/h (2 Bft) 100,00 %
01.07.2021 20:52 14,2 C 13,9 C 15,0 C 97 % 1017,0 hPa 0,0 l/m 0 min 0 min 20 W/m 3,2 km/h (1 Bft) 100,00 %
01.07.2021 20:54 14,2 C 13,9 C 15,0 C 97 % 1017,1 hPa 0,0 l/m 0 min 0 min 19 W/m 6,4 km/h (2 Bft) 100,00 %
01.07.2021 20:56 14,2 C 13,3 C 15,0 C 97 % 1017,1 hPa 0,0 l/m 0 min 0 min 18 W/m 6,4 km/h (2 Bft) 100,00 %
01.07.2021 20:58 14,2 C 13,3 C 15,0 C 97 % 1017,1 hPa 0,0 l/m 0 min 0 min 17 W/m 6,4 km/h (2 Bft) 97,83 %
01.07.2021 21:00 14,2 C 13,3 C 15,0 C 97 % 1017,1 hPa 0,0 l/m 0 min 0 min 16 W/m 6,4 km/h (2 Bft) 100,00 %
01.07.2021 21:02 14,2 C 13,3 C 15,0 C 97 % 1017,1 hPa 0,0 l/m 0 min 2 min 17 W/m 6,4 km/h (2 Bft) 100,00 %
01.07.2021 21:04 14,1 C 13,3 C 15,0 C 97 % 1017,1 hPa 0,0 l/m 0 min 2 min 18 W/m 6,4 km/h (2 Bft) 100,00 %
01.07.2021 21:06 14,1 C 13,3 C 14,5 C 97 % 1017,1 hPa 0,0 l/m 0 min 2 min 18 W/m 6,4 km/h (2 Bft) 100,00 %
01.07.2021 21:08 14,1 C 13,3 C 14,5 C 97 % 1017,1 hPa 0,0 l/m 0 min 2 min 18 W/m 3,2 km/h (1 Bft) 100,00 %
01.07.2021 21:10 14,1 C 13,3 C 14,5 C 97 % 1017,1 hPa 0,0 l/m 0 min 2 min 18 W/m 3,2 km/h (1 Bft) 100,00 %
01.07.2021 21:12 14,1 C 13,3 C 15,0 C 97 % 1017,1 hPa 0,0 l/m 0 min 2 min 18 W/m 6,4 km/h (2 Bft) 100,00 %
01.07.2021 21:14 14,1 C 13,3 C 15,0 C 97 % 1017,1 hPa 0,0 l/m 0 min 2 min 18 W/m 9,7 km/h (2 Bft) 100,00 %
01.07.2021 21:16 14,1 C 13,3 C 15,0 C 97 % 1017,1 hPa 0,0 l/m 0 min 2 min 17 W/m 6,4 km/h (2 Bft) 100,00 %
01.07.2021 21:18 14,1 C 13,3 C 14,5 C 97 % 1017,1 hPa 0,0 l/m 0 min 2 min 16 W/m 6,4 km/h (2 Bft) 100,00 %
01.07.2021 21:20 14,1 C 13,3 C 14,5 C 97 % 1017,2 hPa 0,0 l/m 0 min 2 min 17 W/m 3,2 km/h (1 Bft) 100,00 %
01.07.2021 21:22 14,1 C 13,3 C 14,5 C 97 % 1017,1 hPa 0,0 l/m 0 min 2 min 18 W/m 6,4 km/h (2 Bft) 100,00 %
01.07.2021 21:24 14,1 C 13,3 C 14,5 C 97 % 1017,1 hPa 0,2 l/m 0 min 2 min 18 W/m 3,2 km/h (1 Bft) 100,00 %
01.07.2021 21:26 14,1 C 13,3 C 14,5 C 97 % 1017,1 hPa 0,0 l/m 0 min 2 min 18 W/m 3,2 km/h (1 Bft) 100,00 %
01.07.2021 21:28 14,1 C 13,3 C 14,5 C 97 % 1017,1 hPa 0,0 l/m 0 min 2 min 16 W/m 6,4 km/h (2 Bft) 100,00 %
01.07.2021 21:30 14,1 C 13,3 C 14,5 C 97 % 1017,2 hPa 0,0 l/m 0 min 2 min 16 W/m 3,2 km/h (1 Bft) 100,00 %
01.07.2021 21:32 14,2 C 13,3 C 14,5 C 97 % 1017,1 hPa 0,0 l/m 0 min 2 min 14 W/m 6,4 km/h (2 Bft) 97,87 %
01.07.2021 21:34 14,2 C 13,3 C 14,5 C 98 % 1017,2 hPa 0,0 l/m 0 min 2 min 12 W/m 3,2 km/h (1 Bft) 100,00 %
01.07.2021 21:36 14,2 C 13,3 C 14,5 C 98 % 1017,2 hPa 0,0 l/m 0 min 0 min 12 W/m 3,2 km/h (1 Bft) 100,00 %
01.07.2021 21:38 14,2 C 13,3 C 14,5 C 98 % 1017,2 hPa 0,0 l/m 0 min 0 min 9 W/m 3,2 km/h (1 Bft) 100,00 %
01.07.2021 21:40 14,2 C 13,3 C 15,0 C 98 % 1017,2 hPa 0,0 l/m 0 min 0 min 7 W/m 3,2 km/h (1 Bft) 100,00 %
01.07.2021 21:42 14,2 C 13,3 C 15,0 C 98 % 1017,2 hPa 0,0 l/m 0 min 0 min 5 W/m 3,2 km/h (1 Bft) 100,00 %
01.07.2021 21:44 14,2 C 13,3 C 15,0 C 98 % 1017,2 hPa 0,0 l/m 0 min 0 min 5 W/m 0,0 km/h (0 Bft) 100,00 %
01.07.2021 21:46 14,2 C 13,3 C 15,0 C 98 % 1017,2 hPa 0,0 l/m 0 min 0 min 1 W/m 3,2 km/h (1 Bft) 95,74 %
01.07.2021 21:48 14,2 C 13,3 C 15,0 C 98 % 1017,2 hPa 0,0 l/m 0 min 0 min 0 W/m 0,0 km/h (0 Bft) 100,00 %
01.07.2021 21:50 14,2 C 13,3 C 15,0 C 98 % 1017,2 hPa 0,0 l/m 0 min 0 min 0 W/m 3,2 km/h (1 Bft) 100,00 %
01.07.2021 21:52 14,2 C 13,3 C 15,0 C 98 % 1017,2 hPa 0,0 l/m 0 min 0 min 0 W/m 3,2 km/h (1 Bft) 100,00 %
01.07.2021 21:54 14,2 C 13,3 C 15,0 C 98 % 1017,2 hPa 0,0 l/m 0 min 0 min 0 W/m 3,2 km/h (1 Bft) 100,00 %
01.07.2021 21:56 14,2 C 13,3 C 15,0 C 98 % 1017,2 hPa 0,2 l/m 0 min 0 min 0 W/m 6,4 km/h (2 Bft) 95,74 %
01.07.2021 21:58 14,2 C 13,3 C 15,0 C 98 % 1017,2 hPa 0,0 l/m 0 min 0 min 0 W/m 3,2 km/h (1 Bft) 97,87 %
01.07.2021 22:00 14,2 C 13,3 C 15,0 C 98 % 1017,2 hPa 0,0 l/m 0 min 0 min 0 W/m 3,2 km/h (1 Bft) 97,87 %
01.07.2021 22:02 14,2 C 13,3 C 15,0 C 98 % 1017,2 hPa 0,0 l/m 0 min 0 min 0 W/m 3,2 km/h (1 Bft) 97,87 %
01.07.2021 22:04 14,2 C 13,3 C 15,0 C 98 % 1017,3 hPa 0,0 l/m 0 min 0 min 0 W/m 3,2 km/h (1 Bft) 97,83 %
01.07.2021 22:06 14,2 C 13,3 C 15,0 C 98 % 1017,3 hPa 0,0 l/m 0 min 0 min 0 W/m 3,2 km/h (1 Bft) 97,87 %
01.07.2021 22:08 14,2 C 13,3 C 15,0 C 98 % 1017,3 hPa 0,0 l/m 0 min 0 min 0 W/m 3,2 km/h (1 Bft) 97,92 %
01.07.2021 22:10 14,2 C 13,3 C 15,0 C 98 % 1017,3 hPa 0,0 l/m 0 min 0 min 0 W/m 3,2 km/h (1 Bft) 97,30 %
01.07.2021 22:12 14,2 C 13,3 C 15,0 C 98 % 1017,3 hPa 0,0 l/m 0 min 0 min 0 W/m 3,2 km/h (1 Bft) 97,87 %
01.07.2021 22:14 14,1 C 13,3 C 15,0 C 98 % 1017,4 hPa 0,0 l/m 0 min 0 min 0 W/m 3,2 km/h (1 Bft) 97,87 %
01.07.2021 22:16 14,2 C 13,3 C 15,0 C 98 % 1017,4 hPa 0,0 l/m 0 min 0 min 0 W/m 3,2 km/h (1 Bft) 95,74 %
01.07.2021 22:18 14,1 C 13,3 C 15,0 C 98 % 1017,4 hPa 0,0 l/m 0 min 0 min 0 W/m 0,0 km/h (0 Bft) 97,87 %
01.07.2021 22:20 14,2 C 13,3 C 15,0 C 98 % 1017,4 hPa 0,0 l/m 0 min 0 min 0 W/m 0,0 km/h (0 Bft) 98,28 %
01.07.2021 22:22 14,2 C 13,3 C 15,0 C 98 % 1017,4 hPa 0,0 l/m 0 min 0 min 0 W/m 3,2 km/h (1 Bft) 97,14 %
01.07.2021 22:24 14,2 C 13,3 C 15,0 C 98 % 1017,4 hPa 0,0 l/m 0 min 0 min 0 W/m 3,2 km/h (1 Bft) 95,74 %
01.07.2021 22:26 14,2 C 13,3 C 15,0 C 98 % 1017,4 hPa 0,0 l/m 0 min 0 min 0 W/m 3,2 km/h (1 Bft) 97,87 %
01.07.2021 22:28 14,2 C 13,3 C 15,0 C 98 % 1017,4 hPa 0,0 l/m 0 min 0 min 0 W/m 0,0 km/h (0 Bft) 97,87 %
01.07.2021 22:30 14,2 C 13,3 C 15,0 C 98 % 1017,4 hPa 0,0 l/m 0 min 0 min 0 W/m 0,0 km/h (0 Bft) 94,83 %
01.07.2021 22:32 14,2 C 13,3 C 15,0 C 98 % 1017,5 hPa 0,0 l/m 0 min 0 min 0 W/m 3,2 km/h (1 Bft) 94,29 %
01.07.2021 22:34 14,2 C 13,3 C 15,0 C 98 % 1017,5 hPa 0,0 l/m 0 min 0 min 0 W/m 3,2 km/h (1 Bft) 97,87 %
01.07.2021 22:36 14,2 C 13,3 C 15,0 C 98 % 1017,5 hPa 0,0 l/m 0 min 0 min 0 W/m 3,2 km/h (1 Bft) 97,87 %
01.07.2021 22:38 14,1 C 13,3 C 15,0 C 98 % 1017,5 hPa 0,0 l/m 0 min 0 min 0 W/m 3,2 km/h (1 Bft) 97,87 %
01.07.2021 22:40 14,1 C 13,3 C 15,0 C 98 % 1017,4 hPa 0,0 l/m 0 min 0 min 0 W/m 3,2 km/h (1 Bft) 97,87 %
01.07.2021 22:42 14,1 C 13,3 C 15,0 C 98 % 1017,4 hPa 0,0 l/m 0 min 0 min 0 W/m 3,2 km/h (1 Bft) 95,74 %
01.07.2021 22:44 14,1 C 13,3 C 15,0 C 98 % 1017,5 hPa 0,0 l/m 0 min 0 min 0 W/m 0,0 km/h (0 Bft) 95,65 %
01.07.2021 22:46 14,1 C 13,3 C 15,0 C 98 % 1017,4 hPa 0,0 l/m 0 min 0 min 0 W/m 3,2 km/h (1 Bft) 93,62 %
01.07.2021 22:48 14,1 C 13,3 C 15,0 C 98 % 1017,4 hPa 0,0 l/m 0 min 0 min 0 W/m 3,2 km/h (1 Bft) 95,74 %
01.07.2021 22:50 14,1 C 13,3 C 15,0 C 98 % 1017,5 hPa 0,0 l/m 0 min 0 min 0 W/m 3,2 km/h (1 Bft) 95,74 %
01.07.2021 22:52 14,1 C 13,3 C 15,0 C 98 % 1017,5 hPa 0,0 l/m 0 min 0 min 0 W/m 3,2 km/h (1 Bft) 95,74 %
01.07.2021 22:54 14,0 C 13,3 C 15,0 C 98 % 1017,4 hPa 0,0 l/m 0 min 0 min 0 W/m 3,2 km/h (1 Bft) 97,83 %
01.07.2021 22:56 14,0 C 13,3 C 15,0 C 98 % 1017,4 hPa 0,0 l/m 0 min 0 min 0 W/m 3,2 km/h (1 Bft) 97,87 %
01.07.2021 22:58 14,1 C 13,3 C 15,0 C 98 % 1017,4 hPa 0,0 l/m 0 min 0 min 0 W/m 3,2 km/h (1 Bft) 94,23 %
01.07.2021 23:00 14,0 C 13,3 C 15,0 C 98 % 1017,5 hPa 0,0 l/m 0 min 0 min 0 W/m 0,0 km/h (0 Bft) 97,87 %
01.07.2021 23:02 14,0 C 13,3 C 15,0 C 98 % 1017,4 hPa 0,0 l/m 0 min 0 min 0 W/m 0,0 km/h (0 Bft) 98,00 %
01.07.2021 23:04 14,1 C 13,3 C 15,0 C 98 % 1017,4 hPa 0,0 l/m 0 min 0 min 0 W/m 3,2 km/h (1 Bft) 97,87 %
01.07.2021 23:06 14,0 C 13,3 C 15,0 C 98 % 1017,4 hPa 0,0 l/m 0 min 0 min 0 W/m 0,0 km/h (0 Bft) 97,87 %
01.07.2021 23:08 14,1 C 13,3 C 15,0 C 98 % 1017,5 hPa 0,0 l/m 0 min 0 min 0 W/m 0,0 km/h (0 Bft) 97,87 %
01.07.2021 23:10 14,1 C 13,3 C 15,0 C 98 % 1017,4 hPa 0,0 l/m 0 min 0 min 0 W/m 3,2 km/h (1 Bft) 97,87 %
01.07.2021 23:12 14,1 C 13,3 C 15,0 C 98 % 1017,4 hPa 0,0 l/m 0 min 0 min 0 W/m 3,2 km/h (1 Bft) 95,74 %
01.07.2021 23:14 14,0 C 13,3 C 15,0 C 98 % 1017,4 hPa 0,0 l/m 0 min 0 min 0 W/m 0,0 km/h (0 Bft) 97,83 %
01.07.2021 23:16 14,0 C 13,3 C 15,0 C 98 % 1017,4 hPa 0,0 l/m 0 min 0 min 0 W/m 0,0 km/h (0 Bft) 97,87 %
01.07.2021 23:18 14,0 C 13,3 C 15,0 C 98 % 1017,4 hPa 0,0 l/m 0 min 0 min 0 W/m 3,2 km/h (1 Bft) 97,87 %
01.07.2021 23:23 14,0 C 13,3 C 15,0 C 98 % 1017,4 hPa 0,0 l/m 0 min 0 min 0 W/m 3,2 km/h (1 Bft) 98,31 %
01.07.2021 23:24 14,0 C 13,3 C 15,0 C 98 % 1017,4 hPa 0,0 l/m 0 min 0 min 0 W/m 0,0 km/h (0 Bft) 100,00 %
01.07.2021 23:26 14,0 C 13,3 C 15,0 C 98 % 1017,5 hPa 0,0 l/m 0 min 0 min 0 W/m 0,0 km/h (0 Bft) 97,30 %
01.07.2021 23:28 14,0 C 13,3 C 15,0 C 98 % 1017,5 hPa 0,0 l/m 0 min 0 min 0 W/m 0,0 km/h (0 Bft) 95,74 %
01.07.2021 23:30 14,0 C 13,3 C 15,0 C 98 % 1017,4 hPa 0,0 l/m 0 min 0 min 0 W/m 0,0 km/h (0 Bft) 100,00 %
01.07.2021 23:32 14,0 C 13,3 C 15,0 C 98 % 1017,4 hPa 0,0 l/m 0 min 0 min 0 W/m 0,0 km/h (0 Bft) 100,00 %
01.07.2021 23:34 14,0 C 13,3 C 15,0 C 98 % 1017,4 hPa 0,0 l/m 0 min 0 min 0 W/m 0,0 km/h (0 Bft) 100,00 %
01.07.2021 23:36 14,0 C 13,3 C 15,0 C 98 % 1017,4 hPa 0,0 l/m 0 min 0 min 0 W/m 0,0 km/h (0 Bft) 100,00 %
01.07.2021 23:38 14,0 C 13,3 C 15,0 C 98 % 1017,4 hPa 0,0 l/m 0 min 0 min 0 W/m 3,2 km/h (1 Bft) 100,00 %
01.07.2021 23:40 14,0 C 13,3 C 15,0 C 98 % 1017,5 hPa 0,0 l/m 0 min 0 min 0 W/m 3,2 km/h (1 Bft) 100,00 %
01.07.2021 23:42 13,9 C 13,3 C 15,0 C 98 % 1017,5 hPa 0,0 l/m 0 min 0 min 0 W/m 3,2 km/h (1 Bft) 95,74 %
01.07.2021 23:44 13,9 C 13,3 C 15,0 C 98 % 1017,5 hPa 0,0 l/m 0 min 0 min 0 W/m 3,2 km/h (1 Bft) 100,00 %
01.07.2021 23:46 13,9 C 13,3 C 15,0 C 98 % 1017,5 hPa 0,0 l/m 0 min 0 min 0 W/m 3,2 km/h (1 Bft) 100,00 %
01.07.2021 23:48 13,9 C 13,3 C 15,0 C 98 % 1017,5 hPa 0,0 l/m 0 min 0 min 0 W/m 3,2 km/h (1 Bft) 100,00 %
01.07.2021 23:50 13,9 C 13,3 C 15,0 C 98 % 1017,5 hPa 0,0 l/m 0 min 0 min 0 W/m 3,2 km/h (1 Bft) 100,00 %
01.07.2021 23:52 13,9 C 13,3 C 15,0 C 98 % 1017,5 hPa 0,0 l/m 0 min 0 min 0 W/m 6,4 km/h (2 Bft) 100,00 %
01.07.2021 23:54 13,9 C 13,3 C 15,0 C 98 % 1017,5 hPa 0,0 l/m 0 min 0 min 0 W/m 9,7 km/h (2 Bft) 100,00 %
01.07.2021 23:56 13,9 C 13,3 C 15,0 C 98 % 1017,5 hPa 0,0 l/m 0 min 0 min 0 W/m 12,9 km/h (3 Bft) 97,87 %
01.07.2021 23:58 13,9 C 13,3 C 15,0 C 98 % 1017,5 hPa 0,0 l/m 0 min 0 min 0 W/m 6,4 km/h (2 Bft) 100,00 %
_ Min-Zeit 07:12 05:50 04:24 11:52 00:18 - - - - 21:44 13:26
Minimum _ 13,1 C 12,2 C 14,5 C 90 % 1014,4 hPa - - - - 0,0 km/h (0 Bft) 55,56 %
_ Max-Zeit 15:02 14:04 09:44 06:14 22:32 05:10 00:00 18:08 14:16 13:54 00:36
Maximum _ 15,1 C 15,6 C 16,1 C 99 % 1017,5 hPa 0,2 l/m 0 min 4 min 311 W/m 29,0 km/h
NO (5 Bft)
100,00 %
Durchschnitt _ 14,1 C 13,7 C 15,1 C 96 % 1015,8 hPa #1,6 l/m #0 min. #2:14 h 104 W/m 10,0 km/h (2 Bft) 97,36 %
© 2021 W. Hausmann